Observation data for JA Ranch on 07/11/2018      Previous  Date       Current Mesonet Observations  Soil Data  Daily Summary Page  Observations in Plain Language
KPD3 110501Z 16000KT 22/19 A3012 RMK A01 T02180189  RH  083%=      5-min Rain = 0
KPD3 110502Z 20000KT 22/19 A3012 RMK A01 T02190189  RH  083%=      5-min Rain = 0
KPD3 110503Z 20000KT 22/19 A3012 RMK A01 T02200188  RH  082%=      5-min Rain = 0
KPD3 110504Z 19000KT 22/19 A3012 RMK A01 T02210188  RH  082%=      5-min Rain = 0
KPD3 110505Z 19001KT 22/19 A3012 RMK A01 T02210188  RH  081%=      5-min Rain = 0
KPD3 110506Z 20001KT 22/19 A3012 RMK A01 T02220188  RH  081%=      5-min Rain = 0
KPD3 110507Z 20001KT 22/19 A3012 RMK A01 T02220188  RH  081%=      5-min Rain = 0
KPD3 110508Z 20001KT 22/19 A3012 RMK A01 T02230188  RH  080%=      5-min Rain = 0
KPD3 110509Z 20001KT 22/19 A3012 RMK A01 T02230189  RH  081%=      5-min Rain = 0
KPD3 110510Z 22001KT 22/19 A3012 RMK A01 T02220192  RH  083%=      5-min Rain = 0
KPD3 110511Z 23001KT 22/19 A3012 RMK A01 T02210192  RH  084%=      5-min Rain = 0
KPD3 110512Z 23001KT 22/19 A3011 RMK A01 T02190191  RH  084%=      5-min Rain = 0
KPD3 110513Z 23001KT 22/19 A3011 RMK A01 T02170189  RH  084%=      5-min Rain = 0
KPD3 110514Z 22001KT 22/19 A3011 RMK A01 T02160188  RH  084%=      5-min Rain = 0
KPD3 110515Z 21001KT 22/19 A3011 RMK A01 T02150189  RH  085%=      5-min Rain = 0
KPD3 110516Z 22001KT 21/19 A3011 RMK A01 T02140188  RH  085%=      5-min Rain = 0
KPD3 110517Z 21001KT 21/19 A3012 RMK A01 T02130188  RH  085%=      5-min Rain = 0
KPD3 110518Z 21002KT 21/19 A3012 RMK A01 T02130188  RH  086%=      5-min Rain = 0
KPD3 110519Z 21002KT 21/19 A3012 RMK A01 T02120187  RH  086%=      5-min Rain = 0
KPD3 110520Z 20002KT 21/19 A3012 RMK A01 T02120187  RH  086%=      5-min Rain = 0
KPD3 110521Z 21002KT 21/19 A3012 RMK A01 T02120188  RH  086%=      5-min Rain = 0
KPD3 110522Z 20002KT 21/19 A3012 RMK A01 T02120187  RH  086%=      5-min Rain = 0
KPD3 110523Z 20002KT 21/19 A3012 RMK A01 T02120189  RH  087%=      5-min Rain = 0
KPD3 110524Z 20002KT 21/19 A3012 RMK A01 T02110189  RH  087%=      5-min Rain = 0
KPD3 110525Z 21002KT 21/19 A3012 RMK A01 T02110188  RH  087%=      5-min Rain = 0
KPD3 110526Z 21002KT 21/19 A3012 RMK A01 T02110188  RH  087%=      5-min Rain = 0
KPD3 110527Z 21002KT 21/19 A3012 RMK A01 T02100188  RH  087%=      5-min Rain = 0
KPD3 110528Z 20002KT 21/19 A3012 RMK A01 T02100188  RH  087%=      5-min Rain = 0
KPD3 110529Z 18002KT 21/19 A3012 RMK A01 T02100187  RH  087%=      5-min Rain = 0
KPD3 110530Z 18002KT 21/19 A3012 RMK A01 T02110186  RH  085%=      5-min Rain = 0
KPD3 110531Z 18002KT 21/19 A3012 RMK A01 T02130185  RH  085%=      5-min Rain = 0
KPD3 110532Z 18002KT 21/19 A3012 RMK A01 T02140186  RH  084%=      5-min Rain = 0
KPD3 110533Z 19002KT 21/19 A3012 RMK A01 T02140186  RH  084%=      5-min Rain = 0
KPD3 110534Z 20002KT 21/19 A3012 RMK A01 T02140188  RH  085%=      5-min Rain = 0
KPD3 110535Z 21002KT 21/19 A3012 RMK A01 T02130187  RH  085%=      5-min Rain = 0
KPD3 110536Z 22002KT 21/19 A3012 RMK A01 T02110187  RH  086%=      5-min Rain = 0
KPD3 110537Z 24002KT 21/19 A3012 RMK A01 T02090186  RH  086%=      5-min Rain = 0
KPD3 110538Z 24002KT 21/19 A3012 RMK A01 T02090186  RH  087%=      5-min Rain = 0
KPD3 110539Z 25002KT 21/19 A3012 RMK A01 T02090186  RH  087%=      5-min Rain = 0
KPD3 110540Z 26003KT 21/19 A3012 RMK A01 T02090186  RH  087%=      5-min Rain = 0
KPD3 110541Z 26003KT 21/19 A3012 RMK A01 T02090186  RH  087%=      5-min Rain = 0
KPD3 110542Z 26003KT 21/19 A3012 RMK A01 T02080186  RH  087%=      5-min Rain = 0
KPD3 110543Z 27003KT 21/19 A3012 RMK A01 T02080186  RH  087%=      5-min Rain = 0
KPD3 110544Z 27004KT 21/19 A3012 RMK A01 T02080185  RH  087%=      5-min Rain = 0
KPD3 110545Z 27004KT 21/19 A3012 RMK A01 T02070186  RH  087%=      5-min Rain = 0
KPD3 110546Z 27004KT 21/19 A3012 RMK A01 T02070186  RH  088%=      5-min Rain = 0
KPD3 110547Z 28004KT 21/19 A3012 RMK A01 T02060186  RH  088%=      5-min Rain = 0
KPD3 110548Z 28004KT 21/19 A3012 RMK A01 T02060186  RH  088%=      5-min Rain = 0
KPD3 110549Z 28004KT 21/19 A3012 RMK A01 T02060186  RH  088%=      5-min Rain = 0
KPD3 110550Z 28004KT 21/19 A3012 RMK A01 T02060186  RH  089%=      5-min Rain = 0
KPD3 110551Z 28003KT 21/19 A3012 RMK A01 T02060186  RH  089%=      5-min Rain = 0
KPD3 110552Z 29003KT 21/19 A3012 RMK A01 T02050186  RH  089%=      5-min Rain = 0
KPD3 110553Z 29003KT 21/19 A3012 RMK A01 T02050186  RH  089%=      5-min Rain = 0
KPD3 110554Z 28002KT 21/19 A3012 RMK A01 T02050186  RH  089%=      5-min Rain = 0
KPD3 110555Z 28002KT 20/19 A3012 RMK A01 T02040186  RH  089%=      5-min Rain = 0
KPD3 110556Z 30002KT 20/19 A3012 RMK A01 T02040186  RH  089%=      5-min Rain = 0
KPD3 110557Z 31002KT 20/19 A3012 RMK A01 T02040186  RH  090%=      5-min Rain = 0
KPD3 110558Z 32002KT 20/19 A3012 RMK A01 T02040187  RH  090%=      5-min Rain = 0
KPD3 110559Z 33002KT 20/19 A3012 RMK A01 T02040188  RH  091%=      5-min Rain = 0
KPD3 110600Z 34001KT 20/19 A3012 RMK A01 T02030188  RH  091%=      5-min Rain = 0
KPD3 110601Z 34001KT 20/19 A3012 RMK A01 T02040188  RH  091%=      5-min Rain = 0
KPD3 110602Z 34001KT 20/19 A3012 RMK A01 T02030188  RH  091%=      5-min Rain = 0
KPD3 110603Z 35001KT 20/19 A3013 RMK A01 T02040188  RH  091%=      5-min Rain = 0
KPD3 110604Z 35002KT 20/19 A3013 RMK A01 T02040188  RH  090%=      5-min Rain = 0
KPD3 110605Z 35002KT 21/19 A3013 RMK A01 T02050188  RH  090%=      5-min Rain = 0
KPD3 110606Z 01002KT 21/19 A3013 RMK A01 T02060187  RH  089%=      5-min Rain = 0
KPD3 110607Z 00002KT 21/19 A3013 RMK A01 T02070187  RH  088%=      5-min Rain = 0
KPD3 110608Z 35002KT 21/19 A3013 RMK A01 T02080187  RH  088%=      5-min Rain = 0
KPD3 110609Z 35002KT 21/19 A3013 RMK A01 T02080186  RH  088%=      5-min Rain = 0
KPD3 110610Z 01002KT 21/19 A3013 RMK A01 T02080186  RH  087%=      5-min Rain = 0
KPD3 110611Z 00003KT 21/19 A3013 RMK A01 T02080187  RH  088%=      5-min Rain = 0
KPD3 110612Z 35003KT 21/19 A3013 RMK A01 T02070187  RH  088%=      5-min Rain = 0
KPD3 110613Z 35003KT 21/19 A3012 RMK A01 T02060187  RH  089%=      5-min Rain = 0
KPD3 110614Z 34003KT 21/19 A3012 RMK A01 T02070187  RH  089%=      5-min Rain = 0
KPD3 110615Z 35002KT 21/19 A3012 RMK A01 T02070187  RH  088%=      5-min Rain = 0
KPD3 110616Z 01002KT 21/19 A3013 RMK A01 T02070187  RH  088%=      5-min Rain = 0
KPD3 110617Z 36002KT 21/19 A3013 RMK A01 T02080187  RH  087%=      5-min Rain = 0
KPD3 110618Z 36002KT 21/19 A3013 RMK A01 T02090186  RH  087%=      5-min Rain = 0
KPD3 110619Z 01002KT 21/19 A3013 RMK A01 T02100186  RH  086%=      5-min Rain = 0
KPD3 110620Z 02002KT 21/19 A3013 RMK A01 T02110186  RH  086%=      5-min Rain = 0
KPD3 110621Z 02002KT 21/19 A3013 RMK A01 T02110186  RH  085%=      5-min Rain = 0
KPD3 110622Z 03001KT 21/19 A3013 RMK A01 T02120186  RH  085%=      5-min Rain = 0
KPD3 110623Z 02001KT 21/19 A3012 RMK A01 T02120186  RH  085%=      5-min Rain = 0
KPD3 110624Z 04002KT 21/19 A3012 RMK A01 T02120186  RH  085%=      5-min Rain = 0
KPD3 110625Z 04002KT 21/19 A3012 RMK A01 T02110186  RH  086%=      5-min Rain = 0
KPD3 110626Z 04001KT 21/19 A3012 RMK A01 T02110186  RH  086%=      5-min Rain = 0
KPD3 110627Z 05002KT 21/19 A3012 RMK A01 T02110185  RH  085%=      5-min Rain = 0
KPD3 110628Z 04002KT 21/18 A3012 RMK A01 T02110184  RH  084%=      5-min Rain = 0
KPD3 110629Z 04002KT 21/19 A3012 RMK A01 T02120185  RH  084%=      5-min Rain = 0
KPD3 110630Z 05002KT 21/19 A3012 RMK A01 T02130186  RH  085%=      5-min Rain = 0
KPD3 110631Z 06002KT 21/19 A3012 RMK A01 T02120185  RH  085%=      5-min Rain = 0
KPD3 110632Z 06003KT 21/19 A3012 RMK A01 T02120185  RH  085%=      5-min Rain = 0
KPD3 110633Z 06003KT 21/19 A3012 RMK A01 T02120186  RH  085%=      5-min Rain = 0
KPD3 110634Z 06003KT 21/19 A3012 RMK A01 T02120187  RH  086%=      5-min Rain = 0
KPD3 110635Z 07003KT 21/19 A3012 RMK A01 T02110186  RH  086%=      5-min Rain = 0
KPD3 110636Z 07003KT 21/19 A3012 RMK A01 T02110186  RH  085%=      5-min Rain = 0
KPD3 110637Z 08003KT 21/19 A3012 RMK A01 T02110186  RH  085%=      5-min Rain = 0
KPD3 110638Z 08002KT 21/19 A3012 RMK A01 T02110186  RH  085%=      5-min Rain = 0
KPD3 110639Z 08002KT 21/19 A3012 RMK A01 T02110185  RH  085%=      5-min Rain = 0
KPD3 110640Z 08001KT 21/19 A3012 RMK A01 T02110185  RH  085%=      5-min Rain = 0
KPD3 110641Z 10001KT 21/19 A3012 RMK A01 T02110185  RH  085%=      5-min Rain = 0
KPD3 110642Z 12001KT 21/19 A3012 RMK A01 T02110185  RH  085%=      5-min Rain = 0
KPD3 110643Z 12001KT 21/19 A3012 RMK A01 T02110185  RH  085%=      5-min Rain = 0
KPD3 110644Z 12001KT 21/19 A3012 RMK A01 T02110186  RH  085%=      5-min Rain = 0
KPD3 110645Z 12001KT 21/19 A3012 RMK A01 T02110187  RH  086%=      5-min Rain = 0
KPD3 110646Z 12002KT 21/19 A3012 RMK A01 T02100188  RH  087%=      5-min Rain = 0
KPD3 110647Z 12002KT 21/19 A3012 RMK A01 T02100187  RH  087%=      5-min Rain = 0
KPD3 110648Z 11002KT 21/19 A3012 RMK A01 T02100185  RH  086%=      5-min Rain = 0
KPD3 110649Z 11002KT 21/18 A3012 RMK A01 T02100184  RH  086%=      5-min Rain = 0
KPD3 110650Z 11003KT 21/18 A3012 RMK A01 T02090184  RH  085%=      5-min Rain = 0
KPD3 110651Z 11003KT 21/18 A3012 RMK A01 T02090184  RH  085%=      5-min Rain = 0
KPD3 110652Z 11003KT 21/19 A3012 RMK A01 T02100185  RH  086%=      5-min Rain = 0
KPD3 110653Z 11003KT 21/19 A3012 RMK A01 T02100185  RH  086%=      5-min Rain = 0
KPD3 110654Z 12003KT 21/19 A3012 RMK A01 T02100185  RH  086%=      5-min Rain = 0
KPD3 110655Z 12003KT 21/19 A3012 RMK A01 T02100185  RH  086%=      5-min Rain = 0
KPD3 110656Z 12002KT 21/18 A3012 RMK A01 T02100184  RH  085%=      5-min Rain = 0
KPD3 110657Z 11003KT 21/18 A3012 RMK A01 T02100183  RH  084%=      5-min Rain = 0
KPD3 110658Z 11003KT 21/18 A3012 RMK A01 T02100182  RH  084%=      5-min Rain = 0
KPD3 110659Z 11003KT 21/18 A3012 RMK A01 T02110182  RH  084%=      5-min Rain = 0
KPD3 110700Z 11003KT 21/18 A3012 RMK A01 T02110181  RH  083%=      5-min Rain = 0
KPD3 110701Z 11003KT 21/18 A3012 RMK A01 T02110183  RH  084%=      5-min Rain = 0
KPD3 110702Z 10003KT 21/18 A3012 RMK A01 T02110182  RH  084%=      5-min Rain = 0
KPD3 110703Z 10003KT 21/18 A3012 RMK A01 T02110182  RH  083%=      5-min Rain = 0
KPD3 110704Z 10002KT 21/18 A3012 RMK A01 T02110182  RH  083%=      5-min Rain = 0
KPD3 110705Z 10003KT 21/18 A3012 RMK A01 T02110182  RH  083%=      5-min Rain = 0
KPD3 110706Z 10002KT 21/18 A3012 RMK A01 T02110181  RH  083%=      5-min Rain = 0
KPD3 110707Z 10002KT 21/18 A3012 RMK A01 T02110183  RH  084%=      5-min Rain = 0
KPD3 110708Z 10002KT 21/18 A3012 RMK A01 T02110183  RH  084%=      5-min Rain = 0
KPD3 110709Z 10001KT 21/18 A3012 RMK A01 T02110183  RH  084%=      5-min Rain = 0
KPD3 110710Z 09001KT 21/19 A3012 RMK A01 T02110185  RH  085%=      5-min Rain = 0
KPD3 110711Z 08001KT 21/19 A3012 RMK A01 T02090185  RH  086%=      5-min Rain = 0
KPD3 110712Z 08000KT 21/18 A3012 RMK A01 T02080184  RH  086%=      5-min Rain = 0
KPD3 110713Z 00000KT 21/18 A3012 RMK A01 T02060183  RH  087%=      5-min Rain = 0
KPD3 110714Z 30000KT 20/18 A3012 RMK A01 T02040183  RH  088%=      5-min Rain = 0
KPD3 110715Z 30001KT 20/18 A3012 RMK A01 T02020182  RH  088%=      5-min Rain = 0
KPD3 110716Z 29002KT 20/18 A3012 RMK A01 T02000181  RH  089%=      5-min Rain = 0
KPD3 110717Z 29002KT 20/18 A3012 RMK A01 T01990180  RH  089%=      5-min Rain = 0
KPD3 110718Z 28003KT 20/18 A3012 RMK A01 T01980180  RH  089%=      5-min Rain = 0
KPD3 110719Z 28003KT 20/18 A3012 RMK A01 T01980180  RH  090%=      5-min Rain = 0
KPD3 110720Z 28003KT 20/18 A3012 RMK A01 T01970180  RH  090%=      5-min Rain = 0
KPD3 110721Z 28003KT 20/18 A3012 RMK A01 T01980181  RH  090%=      5-min Rain = 0
KPD3 110722Z 28003KT 20/18 A3012 RMK A01 T01970181  RH  090%=      5-min Rain = 0
KPD3 110723Z 28003KT 20/18 A3012 RMK A01 T01970181  RH  090%=      5-min Rain = 0
KPD3 110724Z 28003KT 20/18 A3012 RMK A01 T01970180  RH  090%=      5-min Rain = 0
KPD3 110725Z 28003KT 20/18 A3012 RMK A01 T01970180  RH  090%=      5-min Rain = 0
KPD3 110726Z 28003KT 20/18 A3012 RMK A01 T01970180  RH  090%=      5-min Rain = 0
KPD3 110727Z 28003KT 20/18 A3012 RMK A01 T01970180  RH  090%=      5-min Rain = 0
KPD3 110728Z 28004KT 20/18 A3012 RMK A01 T01970180  RH  090%=      5-min Rain = 0
KPD3 110729Z 28004KT 20/18 A3012 RMK A01 T01970181  RH  090%=      5-min Rain = 0
KPD3 110730Z 28004KT 20/18 A3012 RMK A01 T01970181  RH  090%=      5-min Rain = 0
KPD3 110731Z 28004KT 20/18 A3012 RMK A01 T01960180  RH  090%=      5-min Rain = 0
KPD3 110732Z 29003KT 20/18 A3012 RMK A01 T01970181  RH  091%=      5-min Rain = 0
KPD3 110733Z 29003KT 20/18 A3012 RMK A01 T01970181  RH  091%=      5-min Rain = 0
KPD3 110734Z 29003KT 20/18 A3012 RMK A01 T01970182  RH  091%=      5-min Rain = 0
KPD3 110735Z 29003KT 20/18 A3013 RMK A01 T01970182  RH  091%=      5-min Rain = 0
KPD3 110736Z 29003KT 20/18 A3013 RMK A01 T01970182  RH  091%=      5-min Rain = 0
KPD3 110737Z 29003KT 20/18 A3013 RMK A01 T01970182  RH  091%=      5-min Rain = 0
KPD3 110738Z 29003KT 20/18 A3013 RMK A01 T01970182  RH  091%=      5-min Rain = 0
KPD3 110739Z 29003KT 20/18 A3013 RMK A01 T01970182  RH  091%=      5-min Rain = 0
KPD3 110740Z 29003KT 20/18 A3013 RMK A01 T01970182  RH  091%=      5-min Rain = 0
KPD3 110741Z 29003KT 20/18 A3013 RMK A01 T01970183  RH  091%=      5-min Rain = 0
KPD3 110742Z 29003KT 20/18 A3013 RMK A01 T01960183  RH  092%=      5-min Rain = 0
KPD3 110743Z 29003KT 20/18 A3013 RMK A01 T01970183  RH  092%=      5-min Rain = 0
KPD3 110744Z 28003KT 20/18 A3013 RMK A01 T01960183  RH  092%=      5-min Rain = 0
KPD3 110745Z 28003KT 20/18 A3012 RMK A01 T01960183  RH  092%=      5-min Rain = 0
KPD3 110746Z 28003KT 20/18 A3012 RMK A01 T01960183  RH  092%=      5-min Rain = 0
KPD3 110747Z 29003KT 20/18 A3012 RMK A01 T01970183  RH  092%=      5-min Rain = 0
KPD3 110748Z 28002KT 20/18 A3012 RMK A01 T01970183  RH  091%=      5-min Rain = 0
KPD3 110749Z 28002KT 20/18 A3012 RMK A01 T01970183  RH  091%=      5-min Rain = 0
KPD3 110750Z 28002KT 20/18 A3012 RMK A01 T01980183  RH  091%=      5-min Rain = 0
KPD3 110751Z 29002KT 20/18 A3012 RMK A01 T01980183  RH  091%=      5-min Rain = 0
KPD3 110752Z 29002KT 20/18 A3012 RMK A01 T01970183  RH  092%=      5-min Rain = 0
KPD3 110753Z 29002KT 20/18 A3012 RMK A01 T01970183  RH  092%=      5-min Rain = 0
KPD3 110754Z 29002KT 20/18 A3012 RMK A01 T01970184  RH  092%=      5-min Rain = 0
KPD3 110755Z 29002KT 20/18 A3012 RMK A01 T01970183  RH  092%=      5-min Rain = 0
KPD3 110756Z 29002KT 20/18 A3012 RMK A01 T01970183  RH  091%=      5-min Rain = 0
KPD3 110757Z 29002KT 20/18 A3012 RMK A01 T01970183  RH  092%=      5-min Rain = 0
KPD3 110758Z 29002KT 20/18 A3012 RMK A01 T01970183  RH  092%=      5-min Rain = 0
KPD3 110759Z 30003KT 20/18 A3012 RMK A01 T01970183  RH  092%=      5-min Rain = 0
KPD3 110800Z 31003KT 20/18 A3012 RMK A01 T01960183  RH  092%=      5-min Rain = 0
KPD3 110801Z 31002KT 20/18 A3012 RMK A01 T01950182  RH  092%=      5-min Rain = 0
KPD3 110802Z 31002KT 20/18 A3012 RMK A01 T01950182  RH  092%=      5-min Rain = 0
KPD3 110803Z 32002KT 20/18 A3012 RMK A01 T01950182  RH  092%=      5-min Rain = 0
KPD3 110804Z 31002KT 20/18 A3012 RMK A01 T01950183  RH  092%=      5-min Rain = 0
KPD3 110805Z 31002KT 20/18 A3012 RMK A01 T01950183  RH  092%=      5-min Rain = 0
KPD3 110806Z 31002KT 20/18 A3013 RMK A01 T01950183  RH  093%=      5-min Rain = 0
KPD3 110807Z 31002KT 20/18 A3013 RMK A01 T01950184  RH  093%=      5-min Rain = 0
KPD3 110808Z 31002KT 20/18 A3013 RMK A01 T01950184  RH  093%=      5-min Rain = 0
KPD3 110809Z 32002KT 20/18 A3013 RMK A01 T01950184  RH  093%=      5-min Rain = 0
KPD3 110810Z 32002KT 20/18 A3012 RMK A01 T01950184  RH  093%=      5-min Rain = 0
KPD3 110811Z 31002KT 20/18 A3012 RMK A01 T01950184  RH  093%=      5-min Rain = 0
KPD3 110812Z 32001KT 20/18 A3012 RMK A01 T01950183  RH  093%=      5-min Rain = 0
KPD3 110813Z 32001KT 20/18 A3012 RMK A01 T01950183  RH  093%=      5-min Rain = 0
KPD3 110814Z 31001KT 20/18 A3012 RMK A01 T01950183  RH  093%=      5-min Rain = 0
KPD3 110815Z 29002KT 20/18 A3012 RMK A01 T01950183  RH  093%=      5-min Rain = 0
KPD3 110816Z 28001KT 20/18 A3012 RMK A01 T01950184  RH  093%=      5-min Rain = 0
KPD3 110817Z 29001KT 20/18 A3012 RMK A01 T01950183  RH  093%=      5-min Rain = 0
KPD3 110818Z 29002KT 20/18 A3012 RMK A01 T01950182  RH  092%=      5-min Rain = 0
KPD3 110819Z 28001KT 20/18 A3012 RMK A01 T01950183  RH  093%=      5-min Rain = 0
KPD3 110820Z 27002KT 19/18 A3012 RMK A01 T01940182  RH  093%=      5-min Rain = 0
KPD3 110821Z 27002KT 19/18 A3012 RMK A01 T01940183  RH  093%=      5-min Rain = 0
KPD3 110822Z 27002KT 19/18 A3012 RMK A01 T01940183  RH  093%=      5-min Rain = 0
KPD3 110823Z 27002KT 19/18 A3012 RMK A01 T01940183  RH  093%=      5-min Rain = 0
KPD3 110824Z 28002KT 19/18 A3012 RMK A01 T01940183  RH  093%=      5-min Rain = 0
KPD3 110825Z 28003KT 19/18 A3012 RMK A01 T01940183  RH  093%=      5-min Rain = 0
KPD3 110826Z 27002KT 19/18 A3011 RMK A01 T01940182  RH  093%=      5-min Rain = 0
KPD3 110827Z 28002KT 19/18 A3011 RMK A01 T01930182  RH  093%=      5-min Rain = 0
KPD3 110828Z 28003KT 19/18 A3011 RMK A01 T01930182  RH  093%=      5-min Rain = 0
KPD3 110829Z 29003KT 19/18 A3011 RMK A01 T01920182  RH  093%=      5-min Rain = 0
KPD3 110830Z 29003KT 19/18 A3011 RMK A01 T01920181  RH  094%=      5-min Rain = 0
KPD3 110831Z 29003KT 19/18 A3011 RMK A01 T01920181  RH  094%=      5-min Rain = 0
KPD3 110832Z 29003KT 19/18 A3011 RMK A01 T01910181  RH  094%=      5-min Rain = 0
KPD3 110833Z 29002KT 19/18 A3011 RMK A01 T01910181  RH  094%=      5-min Rain = 0
KPD3 110834Z 29003KT 19/18 A3011 RMK A01 T01910181  RH  094%=      5-min Rain = 0
KPD3 110835Z 29003KT 19/18 A3011 RMK A01 T01910181  RH  094%=      5-min Rain = 0
KPD3 110836Z 29002KT 19/18 A3011 RMK A01 T01910181  RH  094%=      5-min Rain = 0
KPD3 110837Z 29003KT 19/18 A3011 RMK A01 T01900181  RH  094%=      5-min Rain = 0
KPD3 110838Z 29003KT 19/18 A3011 RMK A01 T01900181  RH  094%=      5-min Rain = 0
KPD3 110839Z 30003KT 19/18 A3011 RMK A01 T01900181  RH  094%=      5-min Rain = 0
KPD3 110840Z 30002KT 19/18 A3011 RMK A01 T01900181  RH  094%=      5-min Rain = 0
KPD3 110841Z 30002KT 19/18 A3011 RMK A01 T01910182  RH  095%=      5-min Rain = 0
KPD3 110842Z 30002KT 19/18 A3011 RMK A01 T01900181  RH  094%=      5-min Rain = 0
KPD3 110843Z 30003KT 19/18 A3011 RMK A01 T01900181  RH  094%=      5-min Rain = 0
KPD3 110844Z 30003KT 19/18 A3011 RMK A01 T01900181  RH  094%=      5-min Rain = 0
KPD3 110845Z 30003KT 19/18 A3011 RMK A01 T01910181  RH  094%=      5-min Rain = 0
KPD3 110846Z 30003KT 19/18 A3011 RMK A01 T01910181  RH  094%=      5-min Rain = 0
KPD3 110847Z 30003KT 19/18 A3011 RMK A01 T01910181  RH  094%=      5-min Rain = 0
KPD3 110848Z 30003KT 19/18 A3011 RMK A01 T01910182  RH  094%=      5-min Rain = 0
KPD3 110849Z 30003KT 19/18 A3011 RMK A01 T01910182  RH  094%=      5-min Rain = 0
KPD3 110850Z 30003KT 19/18 A3011 RMK A01 T01920182  RH  094%=      5-min Rain = 0
KPD3 110851Z 30003KT 19/18 A3011 RMK A01 T01920182  RH  094%=      5-min Rain = 0
KPD3 110852Z 30003KT 19/18 A3011 RMK A01 T01920182  RH  094%=      5-min Rain = 0
KPD3 110853Z 30003KT 19/18 A3011 RMK A01 T01920182  RH  094%=      5-min Rain = 0
KPD3 110854Z 30003KT 19/18 A3011 RMK A01 T01920182  RH  094%=      5-min Rain = 0
KPD3 110855Z 30002KT 19/18 A3011 RMK A01 T01920182  RH  094%=      5-min Rain = 0
KPD3 110856Z 30002KT 19/18 A3011 RMK A01 T01920182  RH  093%=      5-min Rain = 0
KPD3 110857Z 30002KT 19/18 A3011 RMK A01 T01920181  RH  094%=      5-min Rain = 0
KPD3 110858Z 30001KT 19/18 A3011 RMK A01 T01920182  RH  094%=      5-min Rain = 0
KPD3 110859Z 30002KT 19/18 A3011 RMK A01 T01920182  RH  094%=      5-min Rain = 0
KPD3 110900Z 30002KT 19/18 A3011 RMK A01 T01920182  RH  094%=      5-min Rain = 0
KPD3 110901Z 29003KT 19/18 A3011 RMK A01 T01920182  RH  094%=      5-min Rain = 0
KPD3 110902Z 29003KT 19/18 A3011 RMK A01 T01920182  RH  094%=      5-min Rain = 0
KPD3 110903Z 29003KT 19/18 A3011 RMK A01 T01920182  RH  094%=      5-min Rain = 0
KPD3 110904Z 28003KT 19/18 A3011 RMK A01 T01920182  RH  094%=      5-min Rain = 0
KPD3 110905Z 28003KT 19/18 A3011 RMK A01 T01910182  RH  094%=      5-min Rain = 0
KPD3 110906Z 28003KT 19/18 A3011 RMK A01 T01910181  RH  094%=      5-min Rain = 0
KPD3 110907Z 29003KT 19/18 A3011 RMK A01 T01910181  RH  094%=      5-min Rain = 0
KPD3 110908Z 29003KT 19/18 A3011 RMK A01 T01900180  RH  094%=      5-min Rain = 0
KPD3 110909Z 28002KT 19/18 A3011 RMK A01 T01900180  RH  094%=      5-min Rain = 0
KPD3 110910Z 28002KT 19/18 A3011 RMK A01 T01900180  RH  094%=      5-min Rain = 0
KPD3 110911Z 28002KT 19/18 A3011 RMK A01 T01900181  RH  094%=      5-min Rain = 0
KPD3 110912Z 28002KT 19/18 A3011 RMK A01 T01900181  RH  094%=      5-min Rain = 0
KPD3 110913Z 29002KT 19/18 A3011 RMK A01 T01900181  RH  094%=      5-min Rain = 0
KPD3 110914Z 29002KT 19/18 A3011 RMK A01 T01890180  RH  094%=      5-min Rain = 0
KPD3 110915Z 30002KT 19/18 A3011 RMK A01 T01890180  RH  094%=      5-min Rain = 0
KPD3 110916Z 29002KT 19/18 A3011 RMK A01 T01900180  RH  094%=      5-min Rain = 0
KPD3 110917Z 29002KT 19/18 A3011 RMK A01 T01900180  RH  094%=      5-min Rain = 0
KPD3 110918Z 29002KT 19/18 A3011 RMK A01 T01900180  RH  094%=      5-min Rain = 0
KPD3 110919Z 29002KT 19/18 A3011 RMK A01 T01900181  RH  094%=      5-min Rain = 0
KPD3 110920Z 29003KT 19/18 A3011 RMK A01 T01910182  RH  094%=      5-min Rain = 0
KPD3 110921Z 29003KT 19/18 A3011 RMK A01 T01910181  RH  094%=      5-min Rain = 0
KPD3 110922Z 29004KT 19/18 A3011 RMK A01 T01910182  RH  094%=      5-min Rain = 0
KPD3 110923Z 29004KT 19/18 A3011 RMK A01 T01910182  RH  094%=      5-min Rain = 0
KPD3 110924Z 29004KT 19/18 A3011 RMK A01 T01910182  RH  094%=      5-min Rain = 0
KPD3 110925Z 29005KT 19/18 A3011 RMK A01 T01910181  RH  094%=      5-min Rain = 0
KPD3 110926Z 29005KT 19/18 A3011 RMK A01 T01910181  RH  094%=      5-min Rain = 0
KPD3 110927Z 29005KT 19/18 A3011 RMK A01 T01900182  RH  095%=      5-min Rain = 0
KPD3 110928Z 28004KT 19/18 A3011 RMK A01 T01900182  RH  095%=      5-min Rain = 0
KPD3 110929Z 28004KT 19/18 A3011 RMK A01 T01900182  RH  095%=      5-min Rain = 0
KPD3 110930Z 29004KT 19/18 A3011 RMK A01 T01900183  RH  095%=      5-min Rain = 0
KPD3 110931Z 28004KT 19/18 A3011 RMK A01 T01910183  RH  095%=      5-min Rain = 0
KPD3 110932Z 28004KT 19/18 A3011 RMK A01 T01910183  RH  095%=      5-min Rain = 0
KPD3 110933Z 28005KT 19/18 A3011 RMK A01 T01910183  RH  095%=      5-min Rain = 0
KPD3 110934Z 28005KT 19/18 A3011 RMK A01 T01910182  RH  095%=      5-min Rain = 0
KPD3 110935Z 28005KT 19/18 A3011 RMK A01 T01900181  RH  094%=      5-min Rain = 0
KPD3 110936Z 27005KT 19/18 A3011 RMK A01 T01900180  RH  094%=      5-min Rain = 0
KPD3 110937Z 27005KT 19/18 A3011 RMK A01 T01890180  RH  095%=      5-min Rain = 0
KPD3 110938Z 27005KT 19/18 A301 RMK A01 T01890180  RH  095%=      5-min Rain = 0
KPD3 110939Z 27005KT 19/18 A301 RMK A01 T01880180  RH  095%=      5-min Rain = 0
KPD3 110940Z 27005KT 19/18 A301 RMK A01 T01880180  RH  095%=      5-min Rain = 0
KPD3 110941Z 27005KT 19/18 A301 RMK A01 T01880181  RH  095%=      5-min Rain = 0
KPD3 110942Z 27005KT 19/18 A301 RMK A01 T01880181  RH  095%=      5-min Rain = 0
KPD3 110943Z 26005KT 19/18 A301 RMK A01 T01880181  RH  096%=      5-min Rain = 0
KPD3 110944Z 26004KT 19/18 A301 RMK A01 T01890182  RH  096%=      5-min Rain = 0
KPD3 110945Z 26005KT 19/18 A301 RMK A01 T01890183  RH  096%=      5-min Rain = 0
KPD3 110946Z 26005KT 19/18 A301 RMK A01 T01890182  RH  096%=      5-min Rain = 0
KPD3 110947Z 26004KT 19/18 A301 RMK A01 T01900183  RH  096%=      5-min Rain = 0
KPD3 110948Z 25004KT 19/18 A301 RMK A01 T01900183  RH  096%=      5-min Rain = 0
KPD3 110949Z 25004KT 19/18 A301 RMK A01 T01910183  RH  095%=      5-min Rain = 0
KPD3 110950Z 25004KT 19/18 A301 RMK A01 T01910183  RH  095%=      5-min Rain = 0
KPD3 110951Z 25004KT 19/18 A301 RMK A01 T01910183  RH  095%=      5-min Rain = 0
KPD3 110952Z 25004KT 19/18 A301 RMK A01 T01910183  RH  095%=      5-min Rain = 0
KPD3 110953Z 25004KT 19/18 A301 RMK A01 T01920183  RH  095%=      5-min Rain = 0
KPD3 110954Z 25004KT 19/18 A301 RMK A01 T01920184  RH  095%=      5-min Rain = 0
KPD3 110955Z 26004KT 19/18 A301 RMK A01 T01920184  RH  095%=      5-min Rain = 0
KPD3 110956Z 26004KT 19/19 A301 RMK A01 T01920185  RH  095%=      5-min Rain = 0
KPD3 110957Z 26004KT 19/19 A301 RMK A01 T01930185  RH  095%=      5-min Rain = 0
KPD3 110958Z 26004KT 19/19 A301 RMK A01 T01930185  RH  095%=      5-min Rain = 0
KPD3 110959Z 27003KT 19/19 A301 RMK A01 T01930185  RH  095%=      5-min Rain = 0
KPD3 111000Z 27003KT 19/19 A301 RMK A01 T01930185  RH  095%=      5-min Rain = 0
KPD3 111001Z 27003KT 19/19 A301 RMK A01 T01930185  RH  095%=      5-min Rain = 0
KPD3 111002Z 27003KT 19/19 A301 RMK A01 T01940185  RH  095%=      5-min Rain = 0
KPD3 111003Z 27003KT 19/18 A301 RMK A01 T01930184  RH  095%=      5-min Rain = 0
KPD3 111004Z 27003KT 19/19 A301 RMK A01 T01940185  RH  095%=      5-min Rain = 0
KPD3 111005Z 28003KT 19/19 A301 RMK A01 T01930185  RH  095%=      5-min Rain = 0
KPD3 111006Z 28003KT 19/19 A301 RMK A01 T01930185  RH  095%=      5-min Rain = 0
KPD3 111007Z 29003KT 19/19 A301 RMK A01 T01940186  RH  095%=      5-min Rain = 0
KPD3 111008Z 28003KT 19/19 A301 RMK A01 T01940186  RH  095%=      5-min Rain = 0
KPD3 111009Z 28002KT 20/19 A301 RMK A01 T01950187  RH  095%=      5-min Rain = 0
KPD3 111010Z 28002KT 20/19 A301 RMK A01 T01950187  RH  095%=      5-min Rain = 0
KPD3 111011Z 28002KT 20/19 A301 RMK A01 T01950187  RH  095%=      5-min Rain = 0
KPD3 111012Z 28002KT 20/19 A301 RMK A01 T01950188  RH  095%=      5-min Rain = 0
KPD3 111013Z 29002KT 20/19 A301 RMK A01 T01950188  RH  095%=      5-min Rain = 0
KPD3 111014Z 29002KT 20/19 A301 RMK A01 T01950188  RH  095%=      5-min Rain = 0
KPD3 111015Z 29002KT 20/19 A301 RMK A01 T01950188  RH  095%=      5-min Rain = 0
KPD3 111016Z 29002KT 20/19 A301 RMK A01 T01950188  RH  095%=      5-min Rain = 0
KPD3 111017Z 29002KT 20/19 A301 RMK A01 T01950188  RH  095%=      5-min Rain = 0
KPD3 111018Z 29002KT 20/19 A301 RMK A01 T01960188  RH  095%=      5-min Rain = 0
KPD3 111019Z 30003KT 20/19 A301 RMK A01 T01960189  RH  096%=      5-min Rain = 0
KPD3 111020Z 30003KT 20/19 A301 RMK A01 T01960189  RH  096%=      5-min Rain = 0
KPD3 111021Z 31003KT 20/19 A301 RMK A01 T01970189  RH  096%=      5-min Rain = 0
KPD3 111022Z 30002KT 20/19 A301 RMK A01 T01970190  RH  095%=      5-min Rain = 0
KPD3 111023Z 31002KT 20/19 A301 RMK A01 T01970190  RH  095%=      5-min Rain = 0
KPD3 111024Z 31002KT 20/19 A301 RMK A01 T01970190  RH  095%=      5-min Rain = 0
KPD3 111025Z 31003KT 20/19 A301 RMK A01 T01980190  RH  095%=      5-min Rain = 0
KPD3 111026Z 31002KT 20/19 A301 RMK A01 T01980190  RH  095%=      5-min Rain = 0
KPD3 111027Z 31002KT 20/19 A301 RMK A01 T01980190  RH  095%=      5-min Rain = 0
KPD3 111028Z 31002KT 20/19 A301 RMK A01 T01980190  RH  095%=      5-min Rain = 0
KPD3 111029Z 31002KT 20/19 A301 RMK A01 T01980190  RH  095%=      5-min Rain = 0
KPD3 111030Z 31002KT 20/19 A301 RMK A01 T01990190  RH  095%=      5-min Rain = 0
KPD3 111031Z 31002KT 20/19 A301 RMK A01 T01990191  RH  095%=      5-min Rain = 0
KPD3 111032Z 31002KT 20/19 A301 RMK A01 T01990191  RH  095%=      5-min Rain = 0
KPD3 111033Z 31002KT 20/19 A301 RMK A01 T01990191  RH  095%=      5-min Rain = 0
KPD3 111034Z 31002KT 20/19 A301 RMK A01 T01990191  RH  095%=      5-min Rain = 0
KPD3 111035Z 31001KT 20/19 A301 RMK A01 T02000192  RH  095%=      5-min Rain = 0
KPD3 111036Z 31001KT 20/19 A301 RMK A01 T02000192  RH  095%=      5-min Rain = 0
KPD3 111037Z 31001KT 20/19 A301 RMK A01 T02000192  RH  095%=      5-min Rain = 0
KPD3 111038Z 31002KT 20/19 A301 RMK A01 T02000192  RH  095%=      5-min Rain = 0
KPD3 111039Z 31002KT 20/19 A301 RMK A01 T02000192  RH  095%=      5-min Rain = 0
KPD3 111040Z 32002KT 20/19 A301 RMK A01 T02000192  RH  095%=      5-min Rain = 0
KPD3 111041Z 32002KT 20/19 A301 RMK A01 T02000193  RH  095%=      5-min Rain = 0
KPD3 111042Z 31002KT 20/19 A301 RMK A01 T02010193  RH  095%=      5-min Rain = 0
KPD3 111043Z 31002KT 20/19 A301 RMK A01 T02010193  RH  095%=      5-min Rain = 0
KPD3 111044Z 31003KT 20/19 A301 RMK A01 T02010193  RH  095%=      5-min Rain = 0
KPD3 111045Z 31002KT 20/19 A301 RMK A01 T02010192  RH  095%=      5-min Rain = 0
KPD3 111046Z 32002KT 20/19 A301 RMK A01 T02010192  RH  095%=      5-min Rain = 0
KPD3 111047Z 32002KT 20/19 A301 RMK A01 T02000192  RH  095%=      5-min Rain = 0
KPD3 111048Z 32002KT 20/19 A301 RMK A01 T02000192  RH  095%=      5-min Rain = 0
KPD3 111049Z 32002KT 20/19 A301 RMK A01 T02000192  RH  095%=      5-min Rain = 0
KPD3 111050Z 32002KT 20/19 A301 RMK A01 T02000192  RH  095%=      5-min Rain = 0
KPD3 111051Z 34002KT 20/19 A301 RMK A01 T02000192  RH  095%=      5-min Rain = 0
KPD3 111052Z 33002KT 20/19 A301 RMK A01 T02000192  RH  095%=      5-min Rain = 0
KPD3 111053Z 33002KT 20/19 A301 RMK A01 T02000192  RH  095%=      5-min Rain = 0
KPD3 111054Z 33002KT 20/19 A301 RMK A01 T02000192  RH  095%=      5-min Rain = 0
KPD3 111055Z 33002KT 20/19 A301 RMK A01 T02000192  RH  095%=      5-min Rain = 0
KPD3 111056Z 33002KT 20/19 A301 RMK A01 T02000192  RH  095%=      5-min Rain = 0
KPD3 111057Z 33002KT 20/19 A301 RMK A01 T02000192  RH  095%=      5-min Rain = 0
KPD3 111058Z 32002KT 20/19 A301 RMK A01 T02000192  RH  095%=      5-min Rain = 0
KPD3 111059Z 32002KT 20/19 A301 RMK A01 T02000192  RH  095%=      5-min Rain = 0
KPD3 111100Z 32001KT 20/19 A301 RMK A01 T02000192  RH  095%=      5-min Rain = 0
KPD3 111101Z 32001KT 20/19 A301 RMK A01 T02000192  RH  095%=      5-min Rain = 0
KPD3 111102Z 32001KT 20/19 A301 RMK A01 T02000192  RH  095%=      5-min Rain = 0
KPD3 111103Z 32001KT 20/19 A301 RMK A01 T02000192  RH  095%=      5-min Rain = 0
KPD3 111104Z 32001KT 20/19 A301 RMK A01 T02000192  RH  095%=      5-min Rain = 0
KPD3 111105Z 32001KT 20/19 A301 RMK A01 T02010193  RH  095%=      5-min Rain = 0
KPD3 111106Z 32001KT 20/19 A301 RMK A01 T02000193  RH  095%=      5-min Rain = 0
KPD3 111107Z 32002KT 20/19 A301 RMK A01 T02000192  RH  095%=      5-min Rain = 0
KPD3 111108Z 32002KT 20/19 A301 RMK A01 T02000192  RH  095%=      5-min Rain = 0
KPD3 111109Z 32002KT 20/19 A301 RMK A01 T02000192  RH  095%=      5-min Rain = 0
KPD3 111110Z 33002KT 20/19 A301 RMK A01 T02000192  RH  095%=      5-min Rain = 0
KPD3 111111Z 33002KT 20/19 A301 RMK A01 T02000192  RH  095%=      5-min Rain = 0
KPD3 111112Z 33002KT 20/19 A301 RMK A01 T02000191  RH  095%=      5-min Rain = 0
KPD3 111113Z 32003KT 20/19 A301 RMK A01 T02000191  RH  095%=      5-min Rain = 0
KPD3 111114Z 32003KT 20/19 A301 RMK A01 T02000192  RH  095%=      5-min Rain = 0
KPD3 111115Z 32003KT 20/19 A301 RMK A01 T02000192  RH  095%=      5-min Rain = 0
KPD3 111116Z 33003KT 20/19 A301 RMK A01 T02000191  RH  095%=      5-min Rain = 0
KPD3 111117Z 33003KT 20/19 A301 RMK A01 T02000191  RH  095%=      5-min Rain = 0
KPD3 111118Z 33003KT 20/19 A301 RMK A01 T02000192  RH  095%=      5-min Rain = 0
KPD3 111119Z 33003KT 20/19 A301 RMK A01 T02000192  RH  095%=      5-min Rain = 0
KPD3 111120Z 33003KT 20/19 A301 RMK A01 T02000192  RH  095%=      5-min Rain = 0
KPD3 111121Z 34003KT 20/19 A301 RMK A01 T02000192  RH  095%=      5-min Rain = 0
KPD3 111122Z 34003KT 20/19 A301 RMK A01 T02000192  RH  095%=      5-min Rain = 0
KPD3 111123Z 34003KT 20/19 A301 RMK A01 T02010192  RH  095%=      5-min Rain = 0
KPD3 111124Z 34003KT 20/19 A301 RMK A01 T02000192  RH  095%=      5-min Rain = 0
KPD3 111125Z 33002KT 20/19 A301 RMK A01 T02000192  RH  095%=      5-min Rain = 0
KPD3 111126Z 33002KT 20/19 A301 RMK A01 T02000192  RH  095%=      5-min Rain = 0
KPD3 111127Z 33002KT 20/19 A301 RMK A01 T02000192  RH  095%=      5-min Rain = 0
KPD3 111128Z 33002KT 20/19 A301 RMK A01 T02000192  RH  095%=      5-min Rain = 0
KPD3 111129Z 33002KT 20/19 A301 RMK A01 T02000192  RH  095%=      5-min Rain = 0
KPD3 111130Z 33002KT 20/19 A301 RMK A01 T02010192  RH  095%=      5-min Rain = 0
KPD3 111131Z 33002KT 20/19 A301 RMK A01 T02000192  RH  095%=      5-min Rain = 0
KPD3 111132Z 33002KT 20/19 A301 RMK A01 T02010192  RH  095%=      5-min Rain = 0
KPD3 111133Z 33002KT 20/19 A301 RMK A01 T02000192  RH  095%=      5-min Rain = 0
KPD3 111134Z 33002KT 20/19 A301 RMK A01 T02000192  RH  095%=      5-min Rain = 0
KPD3 111135Z 34002KT 20/19 A301 RMK A01 T02000191  RH  095%=      5-min Rain = 0
KPD3 111136Z 34002KT 20/19 A301 RMK A01 T02000191  RH  095%=      5-min Rain = 0
KPD3 111137Z 34002KT 20/19 A301 RMK A01 T02000192  RH  095%=      5-min Rain = 0
KPD3 111138Z 34001KT 20/19 A301 RMK A01 T01990191  RH  095%=      5-min Rain = 0
KPD3 111139Z 34001KT 20/19 A301 RMK A01 T01990191  RH  095%=      5-min Rain = 0
KPD3 111140Z 35001KT 20/19 A301 RMK A01 T01990191  RH  095%=      5-min Rain = 0
KPD3 111141Z 35001KT 20/19 A301 RMK A01 T01990191  RH  095%=      5-min Rain = 0
KPD3 111142Z 35001KT 20/19 A301 RMK A01 T01990191  RH  095%=      5-min Rain = 0
KPD3 111143Z 35001KT 20/19 A301 RMK A01 T01990191  RH  095%=      5-min Rain = 0
KPD3 111144Z 34001KT 20/19 A301 RMK A01 T01980189  RH  095%=      5-min Rain = 0
KPD3 111145Z 35001KT 20/19 A301 RMK A01 T01970188  RH  095%=      5-min Rain = 0
KPD3 111146Z 35001KT 20/19 A301 RMK A01 T01970188  RH  095%=      5-min Rain = 0
KPD3 111147Z 34001KT 20/19 A301 RMK A01 T01970188  RH  095%=      5-min Rain = 0
KPD3 111148Z 34001KT 20/19 A301 RMK A01 T01970189  RH  095%=      5-min Rain = 0
KPD3 111149Z 34000KT 20/19 A301 RMK A01 T01960188  RH  095%=      5-min Rain = 0
KPD3 111150Z 34000KT 20/19 A301 RMK A01 T01950187  RH  095%=      5-min Rain = 0
KPD3 111151Z 02000KT 20/19 A301 RMK A01 T01950187  RH  095%=      5-min Rain = 0
KPD3 111152Z 02000KT 20/19 A301 RMK A01 T01950187  RH  095%=      5-min Rain = 0
KPD3 111153Z 27001KT 20/19 A301 RMK A01 T01950188  RH  095%=      5-min Rain = 0
KPD3 111154Z 33001KT 20/19 A301 RMK A01 T01950188  RH  096%=      5-min Rain = 0
KPD3 111155Z 35001KT 20/19 A301 RMK A01 T01950189  RH  096%=      5-min Rain = 0
KPD3 111156Z 32001KT 20/19 A301 RMK A01 T01960189  RH  096%=      5-min Rain = 0
KPD3 111157Z 30002KT 20/19 A301 RMK A01 T01960189  RH  096%=      5-min Rain = 0
KPD3 111158Z 31002KT 20/19 A301 RMK A01 T01960190  RH  096%=      5-min Rain = 0
KPD3 111159Z 29002KT 20/19 A301 RMK A01 T01970191  RH  096%=      5-min Rain = 0
KPD3 111200Z 28002KT 20/19 A301 RMK A01 T01970191  RH  096%=      5-min Rain = 0
KPD3 111201Z 32001KT 20/19 A301 RMK A01 T01970191  RH  096%=      5-min Rain = 0
KPD3 111202Z 31001KT 20/19 A301 RMK A01 T01970190  RH  096%=      5-min Rain = 0
KPD3 111203Z 32001KT 20/19 A301 RMK A01 T01970190  RH  096%=      5-min Rain = 0
KPD3 111204Z 32001KT 20/19 A301 RMK A01 T01980191  RH  096%=      5-min Rain = 0
KPD3 111205Z 30002KT 20/19 A301 RMK A01 T01990192  RH  095%=      5-min Rain = 0
KPD3 111206Z 30001KT 20/19 A301 RMK A01 T02000191  RH  095%=      5-min Rain = 0
KPD3 111207Z 30001KT 20/19 A301 RMK A01 T02000191  RH  095%=      5-min Rain = 0
KPD3 111208Z 29001KT 20/19 A301 RMK A01 T02000190  RH  094%=      5-min Rain = 0
KPD3 111209Z 29001KT 20/19 A301 RMK A01 T01990190  RH  095%=      5-min Rain = 0
KPD3 111210Z 29001KT 20/19 A301 RMK A01 T01990190  RH  095%=      5-min Rain = 0
KPD3 111211Z 29001KT 20/19 A301 RMK A01 T01990191  RH  095%=      5-min Rain = 0
KPD3 111212Z 29001KT 20/19 A301 RMK A01 T01990190  RH  095%=      5-min Rain = 0
KPD3 111213Z 29001KT 20/19 A301 RMK A01 T01990190  RH  095%=      5-min Rain = 0
KPD3 111214Z 29001KT 20/19 A301 RMK A01 T01990191  RH  095%=      5-min Rain = 0
KPD3 111215Z 29001KT 20/19 A301 RMK A01 T01990191  RH  095%=      5-min Rain = 0
KPD3 111216Z 29000KT 20/19 A301 RMK A01 T01990190  RH  095%=      5-min Rain = 0
KPD3 111217Z 00000KT 20/19 A301 RMK A01 T01980190  RH  095%=      5-min Rain = 0
KPD3 111218Z 00000KT 20/19 A3011 RMK A01 T01990190  RH  095%=      5-min Rain = 0
KPD3 111219Z 00000KT 20/19 A3011 RMK A01 T01980190  RH  095%=      5-min Rain = 0
KPD3 111220Z 29000KT 20/19 A3011 RMK A01 T01980190  RH  095%=      5-min Rain = 0
KPD3 111221Z 32001KT 20/19 A3011 RMK A01 T01990191  RH  095%=      5-min Rain = 0
KPD3 111222Z 32001KT 20/19 A3011 RMK A01 T01990191  RH  095%=      5-min Rain = 0
KPD3 111223Z 33001KT 20/19 A3011 RMK A01 T01980191  RH  095%=      5-min Rain = 0
KPD3 111224Z 33001KT 20/19 A3011 RMK A01 T01980191  RH  095%=      5-min Rain = 0
KPD3 111225Z 33001KT 20/19 A3011 RMK A01 T01990191  RH  095%=      5-min Rain = 0
KPD3 111226Z 34001KT 20/19 A3011 RMK A01 T01990192  RH  095%=      5-min Rain = 0
KPD3 111227Z 35001KT 20/19 A3011 RMK A01 T01990192  RH  096%=      5-min Rain = 0
KPD3 111228Z 00001KT 20/19 A3011 RMK A01 T01990192  RH  096%=      5-min Rain = 0
KPD3 111229Z 00001KT 20/19 A3011 RMK A01 T01990192  RH  095%=      5-min Rain = 0
KPD3 111230Z 00001KT 20/19 A3011 RMK A01 T02000192  RH  095%=      5-min Rain = 0
KPD3 111231Z 00001KT 20/19 A3011 RMK A01 T02000192  RH  095%=      5-min Rain = 0
KPD3 111232Z 00000KT 20/19 A3011 RMK A01 T02000193  RH  095%=      5-min Rain = 0
KPD3 111233Z 01000KT 20/19 A3011 RMK A01 T02000193  RH  095%=      5-min Rain = 0
KPD3 111234Z 01001KT 20/19 A3011 RMK A01 T02010193  RH  095%=      5-min Rain = 0
KPD3 111235Z 01001KT 20/19 A3011 RMK A01 T02010194  RH  095%=      5-min Rain = 0
KPD3 111236Z 01001KT 20/19 A3011 RMK A01 T02010194  RH  095%=      5-min Rain = 0
KPD3 111237Z 01001KT 20/19 A3011 RMK A01 T02020194  RH  095%=      5-min Rain = 0
KPD3 111238Z 01000KT 20/20 A3011 RMK A01 T02020195  RH  095%=      5-min Rain = 0
KPD3 111239Z 01000KT 20/19 A3011 RMK A01 T02020194  RH  095%=      5-min Rain = 0
KPD3 111240Z 00000KT 20/20 A3011 RMK A01 T02020195  RH  095%=      5-min Rain = 0
KPD3 111241Z 00000KT 20/20 A3011 RMK A01 T02030195  RH  095%=      5-min Rain = 0
KPD3 111242Z 01000KT 20/20 A3011 RMK A01 T02030196  RH  095%=      5-min Rain = 0
KPD3 111243Z 01001KT 20/20 A3012 RMK A01 T02040196  RH  095%=      5-min Rain = 0
KPD3 111244Z 01001KT 21/20 A3012 RMK A01 T02050197  RH  095%=      5-min Rain = 0
KPD3 111245Z 01001KT 21/20 A3012 RMK A01 T02050197  RH  095%=      5-min Rain = 0
KPD3 111246Z 01001KT 21/20 A3012 RMK A01 T02060198  RH  095%=      5-min Rain = 0
KPD3 111247Z 01001KT 21/20 A3012 RMK A01 T02060199  RH  095%=      5-min Rain = 0
KPD3 111248Z 01000KT 21/20 A3012 RMK A01 T02070199  RH  095%=      5-min Rain = 0
KPD3 111249Z 02001KT 21/20 A3012 RMK A01 T02080199  RH  095%=      5-min Rain = 0
KPD3 111250Z 02001KT 21/20 A3012 RMK A01 T02080200  RH  095%=      5-min Rain = 0
KPD3 111251Z 02001KT 21/20 A3012 RMK A01 T02090201  RH  095%=      5-min Rain = 0
KPD3 111252Z 01001KT 21/20 A3012 RMK A01 T02100201  RH  095%=      5-min Rain = 0
KPD3 111253Z 02001KT 21/20 A3012 RMK A01 T02100201  RH  094%=      5-min Rain = 0
KPD3 111254Z 02000KT 21/20 A3012 RMK A01 T02110202  RH  094%=      5-min Rain = 0
KPD3 111255Z 05001KT 21/20 A3012 RMK A01 T02120202  RH  094%=      5-min Rain = 0
KPD3 111256Z 05001KT 21/20 A3012 RMK A01 T02120202  RH  094%=      5-min Rain = 0
KPD3 111257Z 06001KT 21/20 A3012 RMK A01 T02130202  RH  093%=      5-min Rain = 0
KPD3 111258Z 05001KT 21/20 A3012 RMK A01 T02140201  RH  093%=      5-min Rain = 0
KPD3 111259Z 05001KT 22/20 A3012 RMK A01 T02150202  RH  092%=      5-min Rain = 0
KPD3 111300Z 05000KT 22/20 A3012 RMK A01 T02160203  RH  092%=      5-min Rain = 0
KPD3 111301Z 03000KT 22/20 A3012 RMK A01 T02170201  RH  090%=      5-min Rain = 0
KPD3 111302Z 03001KT 22/20 A3012 RMK A01 T02190202  RH  090%=      5-min Rain = 0
KPD3 111303Z 05000KT 22/20 A3012 RMK A01 T02200200  RH  088%=      5-min Rain = 0
KPD3 111304Z 05000KT 22/20 A3012 RMK A01 T02210199  RH  087%=      5-min Rain = 0
KPD3 111305Z 00000KT 22/20 A3012 RMK A01 T02220201  RH  088%=      5-min Rain = 0
KPD3 111306Z 05000KT 22/20 A3012 RMK A01 T02240203  RH  088%=      5-min Rain = 0
KPD3 111307Z 03000KT 22/20 A3012 RMK A01 T02240204  RH  088%=      5-min Rain = 0
KPD3 111308Z 02000KT 22/20 A3012 RMK A01 T02240204  RH  088%=      5-min Rain = 0
KPD3 111309Z 02001KT 22/20 A3012 RMK A01 T02240202  RH  087%=      5-min Rain = 0
KPD3 111310Z 04001KT 22/20 A3012 RMK A01 T02240200  RH  086%=      5-min Rain = 0
KPD3 111311Z 05001KT 22/20 A3012 RMK A01 T02240201  RH  087%=      5-min Rain = 0
KPD3 111312Z 05001KT 22/20 A3012 RMK A01 T02230201  RH  087%=      5-min Rain = 0
KPD3 111313Z 06001KT 22/20 A3012 RMK A01 T02230200  RH  087%=      5-min Rain = 0
KPD3 111314Z 07000KT 22/20 A3012 RMK A01 T02220201  RH  088%=      5-min Rain = 0
KPD3 111315Z 07000KT 22/20 A3012 RMK A01 T02220202  RH  088%=      5-min Rain = 0
KPD3 111316Z 00000KT 22/20 A3012 RMK A01 T02220202  RH  088%=      5-min Rain = 0
KPD3 111317Z 00000KT 22/20 A3012 RMK A01 T02230203  RH  089%=      5-min Rain = 0
KPD3 111318Z 08000KT 22/20 A3012 RMK A01 T02230204  RH  089%=      5-min Rain = 0
KPD3 111319Z 08000KT 22/20 A3012 RMK A01 T02230201  RH  087%=      5-min Rain = 0
KPD3 111320Z 08001KT 22/20 A3012 RMK A01 T02230203  RH  088%=      5-min Rain = 0
KPD3 111321Z 07001KT 22/20 A3012 RMK A01 T02230202  RH  087%=      5-min Rain = 0
KPD3 111322Z 07001KT 22/20 A3012 RMK A01 T02230201  RH  087%=      5-min Rain = 0
KPD3 111323Z 07001KT 22/20 A3012 RMK A01 T02220202  RH  088%=      5-min Rain = 0
KPD3 111324Z 07001KT 22/20 A3012 RMK A01 T02220203  RH  089%=      5-min Rain = 0
KPD3 111325Z 08000KT 22/20 A3012 RMK A01 T02220203  RH  089%=      5-min Rain = 0
KPD3 111326Z 05001KT 22/20 A3012 RMK A01 T02220202  RH  089%=      5-min Rain = 0
KPD3 111327Z 05001KT 22/20 A3012 RMK A01 T02220202  RH  088%=      5-min Rain = 0
KPD3 111328Z 05000KT 22/20 A3012 RMK A01 T02220203  RH  089%=      5-min Rain = 0
KPD3 111329Z 05000KT 22/20 A3012 RMK A01 T02220203  RH  089%=      5-min Rain = 0
KPD3 111330Z 05000KT 22/20 A3012 RMK A01 T02230203  RH  089%=      5-min Rain = 0
KPD3 111331Z 05001KT 22/20 A3012 RMK A01 T02230203  RH  088%=      5-min Rain = 0
KPD3 111332Z 05000KT 22/20 A3012 RMK A01 T02230203  RH  089%=      5-min Rain = 0
KPD3 111333Z 06001KT 22/20 A3012 RMK A01 T02230203  RH  088%=      5-min Rain = 0
KPD3 111334Z 07001KT 22/20 A3012 RMK A01 T02230202  RH  087%=      5-min Rain = 0
KPD3 111335Z 05001KT 22/20 A3012 RMK A01 T02240200  RH  087%=      5-min Rain = 0
KPD3 111336Z 06001KT 22/20 A3012 RMK A01 T02240202  RH  087%=      5-min Rain = 0
KPD3 111337Z 08001KT 23/20 A3012 RMK A01 T02250202  RH  087%=      5-min Rain = 0
KPD3 111338Z 07001KT 23/20 A3012 RMK A01 T02250199  RH  085%=      5-min Rain = 0
KPD3 111339Z 06001KT 23/20 A3012 RMK A01 T02250198  RH  085%=      5-min Rain = 0
KPD3 111340Z 08001KT 23/20 A3012 RMK A01 T02250200  RH  086%=      5-min Rain = 0
KPD3 111341Z 08002KT 23/20 A3012 RMK A01 T02250199  RH  085%=      5-min Rain = 0
KPD3 111342Z 09002KT 23/20 A3012 RMK A01 T02250202  RH  087%=      5-min Rain = 0
KPD3 111343Z 08001KT 23/20 A3012 RMK A01 T02250202  RH  087%=      5-min Rain = 0
KPD3 111344Z 09001KT 23/20 A3013 RMK A01 T02250201  RH  086%=      5-min Rain = 0
KPD3 111345Z 10001KT 23/20 A3013 RMK A01 T02260202  RH  087%=      5-min Rain = 0
KPD3 111346Z 10001KT 23/20 A3013 RMK A01 T02260203  RH  086%=      5-min Rain = 0
KPD3 111347Z 10001KT 23/20 A3013 RMK A01 T02260202  RH  086%=      5-min Rain = 0
KPD3 111348Z 11002KT 23/20 A3013 RMK A01 T02260202  RH  086%=      5-min Rain = 0
KPD3 111349Z 09002KT 23/20 A3013 RMK A01 T02270202  RH  086%=      5-min Rain = 0
KPD3 111350Z 09002KT 23/20 A3013 RMK A01 T02270202  RH  086%=      5-min Rain = 0
KPD3 111351Z 10002KT 23/20 A3013 RMK A01 T02280202  RH  086%=      5-min Rain = 0
KPD3 111352Z 09001KT 23/20 A3013 RMK A01 T02280203  RH  086%=      5-min Rain = 0
KPD3 111353Z 09001KT 23/20 A3013 RMK A01 T02290204  RH  086%=      5-min Rain = 0
KPD3 111354Z 10001KT 23/20 A3013 RMK A01 T02290203  RH  085%=      5-min Rain = 0
KPD3 111355Z 11001KT 23/21 A3013 RMK A01 T02300206  RH  086%=      5-min Rain = 0
KPD3 111356Z 09001KT 23/21 A3013 RMK A01 T02310207  RH  086%=      5-min Rain = 0
KPD3 111357Z 09002KT 23/21 A3013 RMK A01 T02320206  RH  085%=      5-min Rain = 0
KPD3 111358Z 09002KT 23/21 A3013 RMK A01 T02320205  RH  085%=      5-min Rain = 0
KPD3 111359Z 09002KT 23/21 A3013 RMK A01 T02320205  RH  085%=      5-min Rain = 0
KPD3 111400Z 10002KT 23/21 A3013 RMK A01 T02320205  RH  085%=      5-min Rain = 0
KPD3 111401Z 08002KT 23/21 A3013 RMK A01 T02320206  RH  086%=      5-min Rain = 0
KPD3 111402Z 09003KT 23/21 A3013 RMK A01 T02330207  RH  086%=      5-min Rain = 0
KPD3 111403Z 09003KT 23/21 A3013 RMK A01 T02340207  RH  084%=      5-min Rain = 0
KPD3 111404Z 09003KT 24/20 A3013 RMK A01 T02360204  RH  083%=      5-min Rain = 0
KPD3 111405Z 09003KT 24/21 A3013 RMK A01 T02380205  RH  082%=      5-min Rain = 0
KPD3 111406Z 08003KT 24/20 A3013 RMK A01 T02400204  RH  080%=      5-min Rain = 0
KPD3 111407Z 09003KT 24/21 A3013 RMK A01 T02420207  RH  081%=      5-min Rain = 0
KPD3 111408Z 10002KT 24/21 A3013 RMK A01 T02440206  RH  079%=      5-min Rain = 0
KPD3 111409Z 11002KT 25/20 A3013 RMK A01 T02450198  RH  075%=      5-min Rain = 0
KPD3 111410Z 12003KT 25/20 A3013 RMK A01 T02460201  RH  076%=      5-min Rain = 0
KPD3 111411Z 13002KT 25/20 A3013 RMK A01 T02470196  RH  073%=      5-min Rain = 0
KPD3 111412Z 12003KT 25/20 A3013 RMK A01 T02490204  RH  076%=      5-min Rain = 0
KPD3 111413Z 14003KT 25/20 A3013 RMK A01 T02510204  RH  075%=      5-min Rain = 0
KPD3 111414Z 13003KT 25/20 A3013 RMK A01 T02520197  RH  071%=      5-min Rain = 0
KPD3 111415Z 15003KT 25/20 A3013 RMK A01 T02530201  RH  073%=      5-min Rain = 0
KPD3 111416Z 15002KT 25/20 A3013 RMK A01 T02530197  RH  071%=      5-min Rain = 0
KPD3 111417Z 15004KT 25/20 A3013 RMK A01 T02520200  RH  073%=      5-min Rain = 0
KPD3 111418Z 15004KT 25/20 A3013 RMK A01 T02520198  RH  072%=      5-min Rain = 0
KPD3 111419Z 16004KT 25/20 A3013 RMK A01 T02520195  RH  071%=      5-min Rain = 0
KPD3 111420Z 17004KT 25/20 A3013 RMK A01 T02510196  RH  071%=      5-min Rain = 0
KPD3 111421Z 17005KT 25/20 A3013 RMK A01 T02500197  RH  072%=      5-min Rain = 0
KPD3 111422Z 17004KT 25/20 A3014 RMK A01 T02500195  RH  071%=      5-min Rain = 0
KPD3 111423Z 18004KT 25/20 A3014 RMK A01 T02500195  RH  071%=      5-min Rain = 0
KPD3 111424Z 17005KT 25/20 A3014 RMK A01 T02500196  RH  072%=      5-min Rain = 0
KPD3 111425Z 18004KT 25/20 A3014 RMK A01 T02500198  RH  073%=      5-min Rain = 0
KPD3 111426Z 17002KT 25/20 A3014 RMK A01 T02500200  RH  073%=      5-min Rain = 0
KPD3 111427Z 17003KT 25/20 A3014 RMK A01 T02520200  RH  073%=      5-min Rain = 0
KPD3 111428Z 19003KT 25/20 A3014 RMK A01 T02530200  RH  072%=      5-min Rain = 0
KPD3 111429Z 18004KT 26/20 A3014 RMK A01 T02550199  RH  071%=      5-min Rain = 0
KPD3 111430Z 17004KT 26/20 A3014 RMK A01 T02550198  RH  070%=      5-min Rain = 0
KPD3 111431Z 19003KT 26/20 A3014 RMK A01 T02560198  RH  070%=      5-min Rain = 0
KPD3 111432Z 18004KT 26/20 A3014 RMK A01 T02560198  RH  070%=      5-min Rain = 0
KPD3 111433Z 19004KT 26/20 A3014 RMK A01 T02570200  RH  070%=      5-min Rain = 0
KPD3 111434Z 18005KT 26/20 A3014 RMK A01 T02590196  RH  068%=      5-min Rain = 0
KPD3 111435Z 19003KT 26/19 A3014 RMK A01 T02590194  RH  068%=      5-min Rain = 0
KPD3 111436Z 18003KT 26/20 A3014 RMK A01 T02590195  RH  068%=      5-min Rain = 0
KPD3 111437Z 17003KT 26/20 A3014 RMK A01 T02600198  RH  069%=      5-min Rain = 0
KPD3 111438Z 19004KT 26/19 A3014 RMK A01 T02610193  RH  066%=      5-min Rain = 0
KPD3 111439Z 19006KT 26/19 A3014 RMK A01 T02610193  RH  066%=      5-min Rain = 0
KPD3 111440Z 19004KT 26/19 A3014 RMK A01 T02590190  RH  065%=      5-min Rain = 0
KPD3 111441Z 18004KT 26/19 A3014 RMK A01 T02580190  RH  066%=      5-min Rain = 0
KPD3 111442Z 19004KT 26/19 A3014 RMK A01 T02570194  RH  068%=      5-min Rain = 0
KPD3 111443Z 19003KT 26/20 A3014 RMK A01 T02560196  RH  069%=      5-min Rain = 0
KPD3 111444Z 17003KT 26/19 A3014 RMK A01 T02570193  RH  068%=      5-min Rain = 0
KPD3 111445Z 18003KT 26/20 A3014 RMK A01 T02570196  RH  069%=      5-min Rain = 0
KPD3 111446Z 18003KT 26/20 A3014 RMK A01 T02580196  RH  069%=      5-min Rain = 0
KPD3 111447Z 17004KT 26/19 A3014 RMK A01 T02590193  RH  067%=      5-min Rain = 0
KPD3 111448Z 18004KT 26/20 A3014 RMK A01 T02600196  RH  067%=      5-min Rain = 0
KPD3 111449Z 19005KT 26/20 A3014 RMK A01 T02620195  RH  066%=      5-min Rain = 0
KPD3 111450Z 19005KT 26/20 A3014 RMK A01 T02640195  RH  066%=      5-min Rain = 0
KPD3 111451Z 18004KT 26/19 A3014 RMK A01 T02640194  RH  065%=      5-min Rain = 0
KPD3 111452Z 17004KT 27/19 A3014 RMK A01 T02650193  RH  065%=      5-min Rain = 0
KPD3 111453Z 19003KT 27/19 A3014 RMK A01 T02650191  RH  064%=      5-min Rain = 0
KPD3 111454Z 20003KT 27/20 A3014 RMK A01 T02660195  RH  065%=      5-min Rain = 0
KPD3 111455Z 14004KT 27/20 A3014 RMK A01 T02670196  RH  065%=      5-min Rain = 0
KPD3 111456Z 14004KT 27/19 A3014 RMK A01 T02680194  RH  064%=      5-min Rain = 0
KPD3 111457Z 16004KT 27/19 A3014 RMK A01 T02690194  RH  063%=      5-min Rain = 0
KPD3 111458Z 18004KT 27/20 A3014 RMK A01 T02700197  RH  064%=      5-min Rain = 0
KPD3 111459Z 15004KT 27/20 A3014 RMK A01 T02710195  RH  063%=      5-min Rain = 0
KPD3 111500Z 15004KT 27/19 A3014 RMK A01 T02720192  RH  062%=      5-min Rain = 0
KPD3 111501Z 15004KT 27/19 A3013 RMK A01 T02720194  RH  062%=      5-min Rain = 0
KPD3 111502Z 15004KT 27/20 A3013 RMK A01 T02730197  RH  063%=      5-min Rain = 0
KPD3 111503Z 16004KT 27/20 A3013 RMK A01 T02740196  RH  062%=      5-min Rain = 0
KPD3 111504Z 16004KT 28/20 A3013 RMK A01 T02760198  RH  062%=      5-min Rain = 0
KPD3 111505Z 17004KT 28/19 A3013 RMK A01 T02780193  RH  060%=      5-min Rain = 0
KPD3 111506Z 16004KT 28/19 A3013 RMK A01 T02780188  RH  058%=      5-min Rain = 0
KPD3 111507Z 17006KT 28/20 A3013 RMK A01 T02780195  RH  060%=      5-min Rain = 0
KPD3 111508Z 16006KT 28/19 A3013 RMK A01 T02790189  RH  058%=      5-min Rain = 0
KPD3 111509Z 17006KT 28/19 A3013 RMK A01 T02810191  RH  058%=      5-min Rain = 0
KPD3 111510Z 16004KT 28/19 A3013 RMK A01 T02810190  RH  057%=      5-min Rain = 0
KPD3 111511Z 15006KT 28/19 A3013 RMK A01 T02810193  RH  059%=      5-min Rain = 0
KPD3 111512Z 17007KT 28/19 A3013 RMK A01 T02830194  RH  059%=      5-min Rain = 0
KPD3 111513Z 18008KT 29/19 A3013 RMK A01 T02850191  RH  057%=      5-min Rain = 0
KPD3 111514Z 18007KT 28/19 A3013 RMK A01 T02840192  RH  057%=      5-min Rain = 0
KPD3 111515Z 16008KT 29/19 A3013 RMK A01 T02850188  RH  056%=      5-min Rain = 0
KPD3 111516Z 15006KT 28/18 A3013 RMK A01 T02840184  RH  055%=      5-min Rain = 0
KPD3 111517Z 19008KT 28/19 A3013 RMK A01 T02840194  RH  058%=      5-min Rain = 0
KPD3 111518Z 17008KT 29/19 A3013 RMK A01 T02870191  RH  056%=      5-min Rain = 0
KPD3 111519Z 18009KT 29/19 A3013 RMK A01 T02870187  RH  054%=      5-min Rain = 0
KPD3 111520Z 18008KT 29/19 A3013 RMK A01 T02880186  RH  054%=      5-min Rain = 0
KPD3 111521Z 17007KT 29/19 A3013 RMK A01 T02870186  RH  054%=      5-min Rain = 0
KPD3 111522Z 18009KT 29/19 A3013 RMK A01 T02880186  RH  054%=      5-min Rain = 0
KPD3 111523Z 18007KT 29/18 A3013 RMK A01 T02880181  RH  052%=      5-min Rain = 0
KPD3 111524Z 17008KT 29/19 A3013 RMK A01 T02880186  RH  054%=      5-min Rain = 0
KPD3 111525Z 16007KT 29/18 A3013 RMK A01 T02880183  RH  053%=      5-min Rain = 0
KPD3 111526Z 15008KT 29/19 A3013 RMK A01 T02880187  RH  054%=      5-min Rain = 0
KPD3 111527Z 16009KT 29/19 A3013 RMK A01 T02880185  RH  054%=      5-min Rain = 0
KPD3 111528Z 16006KT 29/19 A3013 RMK A01 T02880186  RH  054%=      5-min Rain = 0
KPD3 111529Z 17008KT 29/19 A3013 RMK A01 T02870188  RH  055%=      5-min Rain = 0
KPD3 111530Z 17009KT 29/18 A3012 RMK A01 T02860183  RH  054%=      5-min Rain = 0
KPD3 111531Z 17009KT 29/18 A3012 RMK A01 T02850181  RH  053%=      5-min Rain = 0
KPD3 111532Z 17006KT 28/18 A3012 RMK A01 T02840183  RH  054%=      5-min Rain = 0
KPD3 111533Z 18007KT 28/18 A3013 RMK A01 T02840184  RH  055%=      5-min Rain = 0
KPD3 111534Z 17007KT 28/18 A3012 RMK A01 T02840181  RH  054%=      5-min Rain = 0
KPD3 111535Z 19009KT 28/18 A3012 RMK A01 T02830182  RH  054%=      5-min Rain = 0
KPD3 111536Z 20010KT 29/18 A3012 RMK A01 T02850180  RH  053%=      5-min Rain = 0
KPD3 111537Z 19009KT 29/18 A3012 RMK A01 T02870176  RH  051%=      5-min Rain = 0
KPD3 111538Z 21010KT 29/18 A3012 RMK A01 T02870176  RH  051%=      5-min Rain = 0
KPD3 111539Z 20010KT 29/17 A3012 RMK A01 T02870172  RH  050%=      5-min Rain = 0
KPD3 111540Z 21008KT 29/17 A3012 RMK A01 T02870174  RH  050%=      5-min Rain = 0
KPD3 111541Z 20007KT 29/17 A3012 RMK A01 T02860171  RH  050%=      5-min Rain = 0
KPD3 111542Z 21008KT 29/18 A3012 RMK A01 T02870176  RH  051%=      5-min Rain = 0
KPD3 111543Z 22009KT 29/17 A3012 RMK A01 T02870173  RH  050%=      5-min Rain = 0
KPD3 111544Z 22009KT 29/17 A3012 RMK A01 T02870172  RH  050%=      5-min Rain = 0
KPD3 111545Z 22007KT 29/17 A3012 RMK A01 T02870174  RH  050%=      5-min Rain = 0
KPD3 111546Z 22007KT 29/18 A3012 RMK A01 T02870176  RH  051%=      5-min Rain = 0
KPD3 111547Z 22009KT 29/18 A3012 RMK A01 T02870175  RH  051%=      5-min Rain = 0
KPD3 111548Z 22009KT 29/17 A3012 RMK A01 T02870173  RH  050%=      5-min Rain = 0
KPD3 111549Z 21007KT 29/17 A3012 RMK A01 T02870172  RH  050%=      5-min Rain = 0
KPD3 111550Z 23006KT 29/18 A3012 RMK A01 T02870176  RH  051%=      5-min Rain = 0
KPD3 111551Z 23007KT 29/17 A3012 RMK A01 T02870174  RH  050%=      5-min Rain = 0
KPD3 111552Z 22008KT 29/17 A3012 RMK A01 T02870173  RH  050%=      5-min Rain = 0
KPD3 111553Z 22007KT 29/17 A3012 RMK A01 T02870174  RH  051%=      5-min Rain = 0
KPD3 111554Z 22006KT 29/18 A3012 RMK A01 T02860176  RH  051%=      5-min Rain = 0
KPD3 111555Z 22006KT 29/18 A3012 RMK A01 T02870179  RH  052%=      5-min Rain = 0
KPD3 111556Z 22007KT 29/18 A3012 RMK A01 T02880178  RH  051%=      5-min Rain = 0
KPD3 111557Z 23006KT 29/17 A3012 RMK A01 T02900173  RH  049%=      5-min Rain = 0
KPD3 111558Z 24006KT 29/18 A3012 RMK A01 T02900178  RH  051%=      5-min Rain = 0
KPD3 111559Z 23007KT 29/18 A3012 RMK A01 T02920177  RH  050%=      5-min Rain = 0
KPD3 111600Z 22007KT 29/18 A3012 RMK A01 T02920177  RH  050%=      5-min Rain = 0
KPD3 111601Z 23007KT 29/18 A3012 RMK A01 T02920179  RH  050%=      5-min Rain = 0
KPD3 111602Z 21006KT 29/18 A3012 RMK A01 T02920181  RH  051%=      5-min Rain = 0
KPD3 111603Z 20006KT 29/18 A3012 RMK A01 T02930182  RH  051%=      5-min Rain = 0
KPD3 111604Z 19006KT 30/18 A3012 RMK A01 T02950184  RH  051%=      5-min Rain = 0
KPD3 111605Z 20008KT 30/18 A3012 RMK A01 T02960182  RH  050%=      5-min Rain = 0
KPD3 111606Z 19007KT 30/18 A3012 RMK A01 T02970180  RH  049%=      5-min Rain = 0
KPD3 111607Z 18008KT 30/18 A3012 RMK A01 T02980183  RH  050%=      5-min Rain = 0
KPD3 111608Z 17011KT 30/18 A3012 RMK A01 T03000180  RH  049%=      5-min Rain = 0
KPD3 111609Z 20010KT 30/18 A3012 RMK A01 T03020183  RH  049%=      5-min Rain = 0
KPD3 111610Z 18010KT 30/18 A3012 RMK A01 T03030176  RH  046%=      5-min Rain = 0
KPD3 111611Z 19008KT 30/18 A3012 RMK A01 T03030176  RH  047%=      5-min Rain = 0
KPD3 111612Z 17009KT 30/18 A3012 RMK A01 T03030176  RH  047%=      5-min Rain = 0
KPD3 111613Z 17011KT 30/17 A3012 RMK A01 T03020173  RH  046%=      5-min Rain = 0
KPD3 111614Z 20012KT 30/18 A3012 RMK A01 T03030176  RH  047%=      5-min Rain = 0
KPD3 111615Z 19012KT 30/18 A3012 RMK A01 T03040175  RH  046%=      5-min Rain = 0
KPD3 111616Z 19010KT 30/17 A3012 RMK A01 T03040172  RH  045%=      5-min Rain = 0
KPD3 111617Z 19009KT 31/17 A3012 RMK A01 T03050170  RH  045%=      5-min Rain = 0
KPD3 111618Z 19009KT 31/17 A3012 RMK A01 T03050171  RH  045%=      5-min Rain = 0
KPD3 111619Z 20009KT 31/17 A3012 RMK A01 T03060167  RH  043%=      5-min Rain = 0
KPD3 111620Z 19009KT 31/17 A3012 RMK A01 T03050166  RH  043%=      5-min Rain = 0
KPD3 111621Z 19009KT 30/17 A3012 RMK A01 T03030169  RH  044%=      5-min Rain = 0
KPD3 111622Z 18011KT 30/17 A3012 RMK A01 T03030170  RH  045%=      5-min Rain = 0
KPD3 111623Z 18010KT 30/17 A3012 RMK A01 T03020166  RH  044%=      5-min Rain = 0
KPD3 111624Z 18008KT 30/17 A3012 RMK A01 T03000166  RH  044%=      5-min Rain = 0
KPD3 111625Z 20009G14KT 30/17 A3012 RMK A01 T02980169  RH  046%=      5-min Rain = 0
KPD3 111626Z 19010KT 30/17 A3012 RMK A01 T02970167  RH  046%=      5-min Rain = 0
KPD3 111627Z 19011KT 30/17 A3012 RMK A01 T02960165  RH  045%=      5-min Rain = 0
KPD3 111628Z 20011KT 30/17 A3012 RMK A01 T02960165  RH  045%=      5-min Rain = 0
KPD3 111629Z 20009KT 30/17 A3012 RMK A01 T02960166  RH  046%=      5-min Rain = 0
KPD3 111630Z 20009KT 30/17 A3012 RMK A01 T02970170  RH  046%=      5-min Rain = 0
KPD3 111631Z 20009KT 30/17 A3012 RMK A01 T02990168  RH  045%=      5-min Rain = 0
KPD3 111632Z 19008KT 30/18 A3012 RMK A01 T03010176  RH  047%=      5-min Rain = 0
KPD3 111633Z 19010KT 30/17 A3012 RMK A01 T03020167  RH  044%=      5-min Rain = 0
KPD3 111634Z 20008KT 30/17 A3012 RMK A01 T03020171  RH  045%=      5-min Rain = 0
KPD3 111635Z 21007KT 30/17 A3012 RMK A01 T03020167  RH  044%=      5-min Rain = 0
KPD3 111636Z 21007KT 30/17 A3012 RMK A01 T03030167  RH  044%=      5-min Rain = 0
KPD3 111637Z 21006KT 30/17 A3011 RMK A01 T03040167  RH  044%=      5-min Rain = 0
KPD3 111638Z 22006KT 31/17 A3011 RMK A01 T03050171  RH  045%=      5-min Rain = 0
KPD3 111639Z 18009KT 31/18 A3011 RMK A01 T03090176  RH  045%=      5-min Rain = 0
KPD3 111640Z 19009KT 31/17 A3011 RMK A01 T03120168  RH  042%=      5-min Rain = 0
KPD3 111641Z 19009KT 31/17 A3011 RMK A01 T03120168  RH  042%=      5-min Rain = 0
KPD3 111642Z 21008KT 31/16 A3011 RMK A01 T03120163  RH  041%=      5-min Rain = 0
KPD3 111643Z 21008KT 31/17 A3011 RMK A01 T03120169  RH  042%=      5-min Rain = 0
KPD3 111644Z 20008KT 31/17 A3011 RMK A01 T03120173  RH  043%=      5-min Rain = 0
KPD3 111645Z 19009G14KT 31/17 A3011 RMK A01 T03140171  RH  042%=      5-min Rain = 0
KPD3 111646Z 18012KT 31/17 A3011 RMK A01 T03140168  RH  042%=      5-min Rain = 0
KPD3 111647Z 16008KT 31/17 A3011 RMK A01 T03130169  RH  042%=      5-min Rain = 0
KPD3 111648Z 17009KT 31/17 A3011 RMK A01 T03140170  RH  042%=      5-min Rain = 0
KPD3 111649Z 19009KT 31/16 A3011 RMK A01 T03140164  RH  040%=      5-min Rain = 0
KPD3 111650Z 19008KT 31/17 A3011 RMK A01 T03130167  RH  041%=      5-min Rain = 0
KPD3 111651Z 19006KT 31/17 A3011 RMK A01 T03120166  RH  041%=      5-min Rain = 0
KPD3 111652Z 17008KT 31/17 A3011 RMK A01 T03120166  RH  042%=      5-min Rain = 0
KPD3 111653Z 17011KT 31/16 A3011 RMK A01 T03120164  RH  041%=      5-min Rain = 0
KPD3 111654Z 16011KT 31/16 A3011 RMK A01 T03130157  RH  039%=      5-min Rain = 0
KPD3 111655Z 16007KT 31/16 A3011 RMK A01 T03130159  RH  039%=      5-min Rain = 0
KPD3 111656Z 19007KT 31/17 A3011 RMK A01 T03130171  RH  043%=      5-min Rain = 0
KPD3 111657Z 20007KT 32/16 A3011 RMK A01 T03150160  RH  039%=      5-min Rain = 0
KPD3 111658Z 18007KT 31/16 A3011 RMK A01 T03140163  RH  040%=      5-min Rain = 0
KPD3 111659Z 18008KT 31/16 A3011 RMK A01 T03140164  RH  041%=      5-min Rain = 0
KPD3 111700Z 19009KT 32/17 A3011 RMK A01 T03150165  RH  041%=      5-min Rain = 0
KPD3 111701Z 18010KT 31/17 A3011 RMK A01 T03140170  RH  042%=      5-min Rain = 0
KPD3 111702Z 16011KT 31/17 A3011 RMK A01 T03140167  RH  041%=      5-min Rain = 0
KPD3 111703Z 18011KT 31/17 A3011 RMK A01 T03140170  RH  042%=      5-min Rain = 0
KPD3 111704Z 19009KT 31/17 A3011 RMK A01 T03140173  RH  043%=      5-min Rain = 0
KPD3 111705Z 20009KT 31/17 A3011 RMK A01 T03140168  RH  041%=      5-min Rain = 0
KPD3 111706Z 20011KT 31/17 A3011 RMK A01 T03130173  RH  043%=      5-min Rain = 0
KPD3 111707Z 21010KT 31/17 A3011 RMK A01 T03130169  RH  042%=      5-min Rain = 0
KPD3 111708Z 21009KT 31/17 A3011 RMK A01 T03130172  RH  043%=      5-min Rain = 0
KPD3 111709Z 20008KT 31/17 A3011 RMK A01 T03130173  RH  043%=      5-min Rain = 0
KPD3 111710Z 17010KT 32/18 A3011 RMK A01 T03150183  RH  045%=      5-min Rain = 0
KPD3 111711Z 18009KT 32/16 A3011 RMK A01 T03180164  RH  039%=      5-min Rain = 0
KPD3 111712Z 18009KT 32/17 A3011 RMK A01 T03180165  RH  040%=      5-min Rain = 0
KPD3 111713Z 18007KT 32/16 A3011 RMK A01 T03180163  RH  039%=      5-min Rain = 0
KPD3 111714Z 19011KT 32/16 A3011 RMK A01 T03190163  RH  039%=      5-min Rain = 0
KPD3 111715Z 19009KT 32/17 A3011 RMK A01 T03180167  RH  040%=      5-min Rain = 0
KPD3 111716Z 19010KT 32/16 A301 RMK A01 T03190164  RH  040%=      5-min Rain = 0
KPD3 111717Z 18010KT 32/17 A301 RMK A01 T03200169  RH  041%=      5-min Rain = 0
KPD3 111718Z 20014G20KT 32/17 A301 RMK A01 T03200165  RH  039%=      5-min Rain = 0
KPD3 111719Z 19012KT 32/16 A3011 RMK A01 T03180159  RH  038%=      5-min Rain = 0
KPD3 111720Z 20010KT 32/15 A3011 RMK A01 T03160153  RH  037%=      5-min Rain = 0
KPD3 111721Z 18009KT 31/16 A3011 RMK A01 T03140156  RH  039%=      5-min Rain = 0
KPD3 111722Z 20010KT 31/16 A3011 RMK A01 T03140163  RH  040%=      5-min Rain = 0
KPD3 111723Z 20011KT 31/16 A3011 RMK A01 T03140160  RH  040%=      5-min Rain = 0
KPD3 111724Z 19008KT 31/15 A3011 RMK A01 T03130154  RH  038%=      5-min Rain = 0
KPD3 111725Z 19007KT 31/15 A301 RMK A01 T03120154  RH  038%=      5-min Rain = 0
KPD3 111726Z 20009KT 31/16 A301 RMK A01 T03110156  RH  039%=      5-min Rain = 0
KPD3 111727Z 20011KT 31/15 A301 RMK A01 T03120152  RH  038%=      5-min Rain = 0
KPD3 111728Z 20012KT 31/15 A301 RMK A01 T03120146  RH  037%=      5-min Rain = 0
KPD3 111729Z 20010KT 31/15 A301 RMK A01 T03110151  RH  038%=      5-min Rain = 0
KPD3 111730Z 20009KT 31/15 A301 RMK A01 T03120153  RH  038%=      5-min Rain = 0
KPD3 111731Z 20009KT 31/16 A301 RMK A01 T03130157  RH  039%=      5-min Rain = 0
KPD3 111732Z 21011KT 31/15 A301 RMK A01 T03140154  RH  038%=      5-min Rain = 0
KPD3 111733Z 20009KT 31/16 A301 RMK A01 T03140157  RH  039%=      5-min Rain = 0
KPD3 111734Z 21008KT 32/17 A301 RMK A01 T03150170  RH  042%=      5-min Rain = 0
KPD3 111735Z 20010KT 32/16 A301 RMK A01 T03170157  RH  038%=      5-min Rain = 0
KPD3 111736Z 20008KT 32/16 A301 RMK A01 T03180158  RH  038%=      5-min Rain = 0
KPD3 111737Z 20007KT 32/17 A301 RMK A01 T03180171  RH  041%=      5-min Rain = 0
KPD3 111738Z 20007KT 32/16 A301 RMK A01 T03210161  RH  038%=      5-min Rain = 0
KPD3 111739Z 18007KT 32/16 A301 RMK A01 T03210163  RH  039%=      5-min Rain = 0
KPD3 111740Z 19009KT 32/16 A301 RMK A01 T03220161  RH  038%=      5-min Rain = 0
KPD3 111741Z 18011KT 32/16 A301 RMK A01 T03220162  RH  038%=      5-min Rain = 0
KPD3 111742Z 15009KT 32/16 A301 RMK A01 T03220157  RH  037%=      5-min Rain = 0
KPD3 111743Z 14010KT 32/16 A3009 RMK A01 T03230157  RH  037%=      5-min Rain = 0
KPD3 111744Z 16012KT 32/17 A3009 RMK A01 T03230166  RH  039%=      5-min Rain = 0
KPD3 111745Z 19013KT 33/17 A301 RMK A01 T03250166  RH  039%=      5-min Rain = 0
KPD3 111746Z 20015KT 33/16 A3009 RMK A01 T03270164  RH  038%=      5-min Rain = 0
KPD3 111747Z 17013KT 33/17 A301 RMK A01 T03280166  RH  038%=      5-min Rain = 0
KPD3 111748Z 18010KT 33/17 A3009 RMK A01 T03280165  RH  038%=      5-min Rain = 0
KPD3 111749Z 19009G14KT 33/16 A3009 RMK A01 T03280156  RH  035%=      5-min Rain = 0
KPD3 111750Z 18007KT 33/16 A3009 RMK A01 T03250155  RH  036%=      5-min Rain = 0
KPD3 111751Z 19008KT 32/16 A3009 RMK A01 T03240161  RH  038%=      5-min Rain = 0
KPD3 111752Z 20008KT 32/16 A3009 RMK A01 T03230160  RH  037%=      5-min Rain = 0
KPD3 111753Z 17006KT 32/16 A3009 RMK A01 T03230159  RH  037%=      5-min Rain = 0
KPD3 111754Z 16008KT 32/17 A3009 RMK A01 T03230170  RH  040%=      5-min Rain = 0
KPD3 111755Z 15010KT 32/16 A3009 RMK A01 T03230157  RH  037%=      5-min Rain = 0
KPD3 111756Z 18012G18KT 32/17 A3008 RMK A01 T03220167  RH  039%=      5-min Rain = 0
KPD3 111757Z 22013KT 32/17 A3009 RMK A01 T03230165  RH  039%=      5-min Rain = 0
KPD3 111758Z 24010KT 32/16 A3009 RMK A01 T03230162  RH  038%=      5-min Rain = 0
KPD3 111759Z 22009KT 32/16 A3009 RMK A01 T03220159  RH  038%=      5-min Rain = 0
KPD3 111800Z 20008KT 32/17 A3009 RMK A01 T03200167  RH  040%=      5-min Rain = 0
KPD3 111801Z 24009G15KT 32/17 A3009 RMK A01 T03210168  RH  040%=      5-min Rain = 0
KPD3 111802Z 17011KT 32/16 A3009 RMK A01 T03210159  RH  038%=      5-min Rain = 0
KPD3 111803Z 21010KT 32/17 A3009 RMK A01 T03210167  RH  040%=      5-min Rain = 0
KPD3 111804Z 22011KT 32/16 A3009 RMK A01 T03200164  RH  039%=      5-min Rain = 0
KPD3 111805Z 22011KT 32/16 A3009 RMK A01 T03180161  RH  039%=      5-min Rain = 0
KPD3 111806Z 23010KT 32/16 A3009 RMK A01 T03160163  RH  040%=      5-min Rain = 0
KPD3 111807Z 22011KT 32/16 A3009 RMK A01 T03150161  RH  040%=      5-min Rain = 0
KPD3 111808Z 22012KT 31/16 A3009 RMK A01 T03130159  RH  040%=      5-min Rain = 0
KPD3 111809Z 22011KT 31/16 A3009 RMK A01 T03110155  RH  039%=      5-min Rain = 0
KPD3 111810Z 23010KT 31/16 A3009 RMK A01 T03100158  RH  040%=      5-min Rain = 0
KPD3 111811Z 23012KT 31/16 A3009 RMK A01 T03100160  RH  041%=      5-min Rain = 0
KPD3 111812Z 22011KT 31/16 A3009 RMK A01 T03110160  RH  040%=      5-min Rain = 0
KPD3 111813Z 22012KT 31/16 A3009 RMK A01 T03110160  RH  040%=      5-min Rain = 0
KPD3 111814Z 21012KT 31/16 A3009 RMK A01 T03120159  RH  040%=      5-min Rain = 0
KPD3 111815Z 21012KT 31/16 A3009 RMK A01 T03130160  RH  040%=      5-min Rain = 0
KPD3 111816Z 20011KT 31/16 A3009 RMK A01 T03140160  RH  040%=      5-min Rain = 0
KPD3 111817Z 20009KT 32/16 A3009 RMK A01 T03150160  RH  039%=      5-min Rain = 0
KPD3 111818Z 21008KT 32/16 A3009 RMK A01 T03160160  RH  039%=      5-min Rain = 0
KPD3 111819Z 20011KT 32/16 A3009 RMK A01 T03180160  RH  039%=      5-min Rain = 0
KPD3 111820Z 18008KT 32/16 A3009 RMK A01 T03190158  RH  038%=      5-min Rain = 0
KPD3 111821Z 17005KT 32/17 A3009 RMK A01 T03200165  RH  039%=      5-min Rain = 0
KPD3 111822Z 20007KT 32/17 A3009 RMK A01 T03220172  RH  041%=      5-min Rain = 0
KPD3 111823Z 21007KT 33/16 A3009 RMK A01 T03250158  RH  037%=      5-min Rain = 0
KPD3 111824Z 25003KT 32/15 A3008 RMK A01 T03230146  RH  034%=      5-min Rain = 0
KPD3 111825Z 22006KT 32/16 A3008 RMK A01 T03210158  RH  038%=      5-min Rain = 0
KPD3 111826Z 22009KT 32/17 A3008 RMK A01 T03240168  RH  039%=      5-min Rain = 0
KPD3 111827Z 17007KT 33/16 A3008 RMK A01 T03260161  RH  037%=      5-min Rain = 0
KPD3 111828Z 16004KT 33/16 A3008 RMK A01 T03260164  RH  038%=      5-min Rain = 0
KPD3 111829Z 17004KT 33/17 A3008 RMK A01 T03260165  RH  038%=      5-min Rain = 0
KPD3 111830Z 20008KT 33/17 A3008 RMK A01 T03280170  RH  039%=      5-min Rain = 0
KPD3 111831Z 21009KT 33/17 A3008 RMK A01 T03310170  RH  038%=      5-min Rain = 0
KPD3 111832Z 20008KT 33/17 A3008 RMK A01 T03310167  RH  038%=      5-min Rain = 0
KPD3 111833Z 20011KT 33/17 A3008 RMK A01 T03310166  RH  037%=      5-min Rain = 0
KPD3 111834Z 21011KT 33/16 A3008 RMK A01 T03310160  RH  036%=      5-min Rain = 0
KPD3 111835Z 20006KT 33/17 A3008 RMK A01 T03300169  RH  038%=      5-min Rain = 0
KPD3 111836Z 19007KT 33/17 A3008 RMK A01 T03320174  RH  039%=      5-min Rain = 0
KPD3 111837Z 16007KT 33/17 A3008 RMK A01 T03340166  RH  037%=      5-min Rain = 0
KPD3 111838Z 20005KT 34/17 A3008 RMK A01 T03350170  RH  037%=      5-min Rain = 0
KPD3 111839Z 18004KT 34/17 A3008 RMK A01 T03350169  RH  037%=      5-min Rain = 0
KPD3 111840Z 13004KT 34/17 A3008 RMK A01 T03350169  RH  037%=      5-min Rain = 0
KPD3 111841Z 17006KT 34/17 A3008 RMK A01 T03350167  RH  037%=      5-min Rain = 0
KPD3 111842Z 18006KT 33/17 A3008 RMK A01 T03340168  RH  037%=      5-min Rain = 0
KPD3 111843Z 19009KT 33/17 A3008 RMK A01 T03310166  RH  037%=      5-min Rain = 0
KPD3 111844Z 20009KT 33/16 A3008 RMK A01 T03270163  RH  037%=      5-min Rain = 0
KPD3 111845Z 20008KT 33/17 A3008 RMK A01 T03260165  RH  038%=      5-min Rain = 0
KPD3 111846Z 20009KT 33/17 A3008 RMK A01 T03260167  RH  039%=      5-min Rain = 0
KPD3 111847Z 20009KT 33/17 A3008 RMK A01 T03250168  RH  039%=      5-min Rain = 0
KPD3 111848Z 19010KT 33/16 A3008 RMK A01 T03250163  RH  038%=      5-min Rain = 0
KPD3 111849Z 19008KT 32/16 A3008 RMK A01 T03240161  RH  038%=      5-min Rain = 0
KPD3 111850Z 18006KT 32/16 A3008 RMK A01 T03240163  RH  038%=      5-min Rain = 0
KPD3 111851Z 19006KT 32/17 A3008 RMK A01 T03240167  RH  039%=      5-min Rain = 0
KPD3 111852Z 19008KT 32/17 A3008 RMK A01 T03230166  RH  039%=      5-min Rain = 0
KPD3 111853Z 18006KT 32/16 A3008 RMK A01 T03220156  RH  037%=      5-min Rain = 0
KPD3 111854Z 19005KT 32/16 A3008 RMK A01 T03200161  RH  038%=      5-min Rain = 0
KPD3 111855Z 18008KT 32/16 A3008 RMK A01 T03200157  RH  038%=      5-min Rain = 0
KPD3 111856Z 18007KT 32/16 A3007 RMK A01 T03200157  RH  037%=      5-min Rain = 0
KPD3 111857Z 18007KT 32/16 A3007 RMK A01 T03200159  RH  038%=      5-min Rain = 0
KPD3 111858Z 21007KT 32/16 A3007 RMK A01 T03200157  RH  037%=      5-min Rain = 0
KPD3 111859Z 21005KT 32/16 A3007 RMK A01 T03210159  RH  038%=      5-min Rain = 0
KPD3 111900Z 22006KT 32/17 A3007 RMK A01 T03210166  RH  039%=      5-min Rain = 0
KPD3 111901Z 21008KT 32/16 A3007 RMK A01 T03220163  RH  039%=      5-min Rain = 0
KPD3 111902Z 22008KT 32/17 A3007 RMK A01 T03210166  RH  039%=      5-min Rain = 0
KPD3 111903Z 22009KT 32/16 A3007 RMK A01 T03220164  RH  039%=      5-min Rain = 0
KPD3 111904Z 21007KT 32/16 A3007 RMK A01 T03230160  RH  038%=      5-min Rain = 0
KPD3 111905Z 21007KT 32/16 A3007 RMK A01 T03230157  RH  037%=      5-min Rain = 0
KPD3 111906Z 21005KT 32/16 A3007 RMK A01 T03230156  RH  036%=      5-min Rain = 0
KPD3 111907Z 22004KT 32/16 A3007 RMK A01 T03230162  RH  038%=      5-min Rain = 0
KPD3 111908Z 19005KT 32/16 A3007 RMK A01 T03230155  RH  036%=      5-min Rain = 0
KPD3 111909Z 19003KT 32/16 A3007 RMK A01 T03240156  RH  037%=      5-min Rain = 0
KPD3 111910Z 19003KT 33/16 A3006 RMK A01 T03250159  RH  037%=      5-min Rain = 0
KPD3 111911Z 20005KT 33/16 A3006 RMK A01 T03260155  RH  036%=      5-min Rain = 0
KPD3 111912Z 20006KT 33/16 A3006 RMK A01 T03270163  RH  037%=      5-min Rain = 0
KPD3 111913Z 20005KT 33/17 A3006 RMK A01 T03290171  RH  039%=      5-min Rain = 0
KPD3 111914Z 19006KT 33/16 A3006 RMK A01 T03320158  RH  035%=      5-min Rain = 0
KPD3 111915Z 19007KT 33/16 A3006 RMK A01 T03320159  RH  036%=      5-min Rain = 0
KPD3 111916Z 17006KT 33/17 A3006 RMK A01 T03320165  RH  037%=      5-min Rain = 0
KPD3 111917Z 15009KT 33/15 A3006 RMK A01 T03340153  RH  034%=      5-min Rain = 0
KPD3 111918Z 14009KT 34/15 A3006 RMK A01 T03350147  RH  032%=      5-min Rain = 0
KPD3 111919Z 15009KT 34/15 A3006 RMK A01 T03360148  RH  032%=      5-min Rain = 0
KPD3 111920Z 20010KT 34/15 A3006 RMK A01 T03360148  RH  032%=      5-min Rain = 0
KPD3 111921Z 21010KT 33/14 A3006 RMK A01 T03330139  RH  031%=      5-min Rain = 0
KPD3 111922Z 21009KT 33/15 A3006 RMK A01 T03300150  RH  034%=      5-min Rain = 0
KPD3 111923Z 19009KT 33/16 A3006 RMK A01 T03300155  RH  035%=      5-min Rain = 0
KPD3 111924Z 20010KT 33/16 A3006 RMK A01 T03310155  RH  035%=      5-min Rain = 0
KPD3 111925Z 18010KT 33/15 A3006 RMK A01 T03320149  RH  033%=      5-min Rain = 0
KPD3 111926Z 19009KT 33/15 A3006 RMK A01 T03310147  RH  033%=      5-min Rain = 0
KPD3 111927Z 21012KT 34/16 A3005 RMK A01 T03360160  RH  035%=      5-min Rain = 0
KPD3 111928Z 21012KT 34/16 A3005 RMK A01 T03410156  RH  033%=      5-min Rain = 0
KPD3 111929Z 20016KT 34/16 A3005 RMK A01 T03430155  RH  032%=      5-min Rain = 0
KPD3 111930Z 18014KT 35/16 A3005 RMK A01 T03450156  RH  032%=      5-min Rain = 0
KPD3 111931Z 19013KT 35/16 A3005 RMK A01 T03450155  RH  032%=      5-min Rain = 0
KPD3 111932Z 20008KT 34/15 A3005 RMK A01 T03440151  RH  031%=      5-min Rain = 0
KPD3 111933Z 18008KT 34/15 A3005 RMK A01 T03400149  RH  032%=      5-min Rain = 0
KPD3 111934Z 16011KT 34/15 A3005 RMK A01 T03360150  RH  033%=      5-min Rain = 0
KPD3 111935Z 16011KT 33/15 A3005 RMK A01 T03330145  RH  032%=      5-min Rain = 0
KPD3 111936Z 17013KT 33/15 A3005 RMK A01 T03310145  RH  032%=      5-min Rain = 0
KPD3 111937Z 17013KT 33/15 A3005 RMK A01 T03300146  RH  033%=      5-min Rain = 0
KPD3 111938Z 16013KT 33/15 A3005 RMK A01 T03280154  RH  035%=      5-min Rain = 0
KPD3 111939Z 16014KT 33/15 A3005 RMK A01 T03270149  RH  034%=      5-min Rain = 0
KPD3 111940Z 16011KT 33/15 A3005 RMK A01 T03270147  RH  034%=      5-min Rain = 0
KPD3 111941Z 17009KT 33/15 A3005 RMK A01 T03260151  RH  035%=      5-min Rain = 0
KPD3 111942Z 17009KT 33/15 A3005 RMK A01 T03290153  RH  035%=      5-min Rain = 0
KPD3 111943Z 18011KT 33/16 A3005 RMK A01 T03330158  RH  035%=      5-min Rain = 0
KPD3 111944Z 18009KT 34/16 A3005 RMK A01 T03360158  RH  034%=      5-min Rain = 0
KPD3 111945Z 17007KT 34/16 A3005 RMK A01 T03360157  RH  034%=      5-min Rain = 0
KPD3 111946Z 17009KT 34/15 A3005 RMK A01 T03350154  RH  034%=      5-min Rain = 0
KPD3 111947Z 16013KT 33/16 A3005 RMK A01 T03330157  RH  035%=      5-min Rain = 0
KPD3 111948Z 15017KT 33/15 A3005 RMK A01 T03310148  RH  033%=      5-min Rain = 0
KPD3 111949Z 15014KT 33/14 A3005 RMK A01 T03290141  RH  032%=      5-min Rain = 0
KPD3 111950Z 16014KT 33/14 A3005 RMK A01 T03270143  RH  033%=      5-min Rain = 0
KPD3 111951Z 16014KT 33/14 A3005 RMK A01 T03270143  RH  033%=      5-min Rain = 0
KPD3 111952Z 15012KT 33/14 A3005 RMK A01 T03260142  RH  033%=      5-min Rain = 0
KPD3 111953Z 14014KT 33/15 A3005 RMK A01 T03270145  RH  033%=      5-min Rain = 0
KPD3 111954Z 16016KT 33/14 A3005 RMK A01 T03270143  RH  033%=      5-min Rain = 0
KPD3 111955Z 16014KT 33/14 A3005 RMK A01 T03280137  RH  031%=      5-min Rain = 0
KPD3 111956Z 19013KT 33/14 A3005 RMK A01 T03330140  RH  031%=      5-min Rain = 0
KPD3 111957Z 19012KT 34/14 A3005 RMK A01 T03370142  RH  031%=      5-min Rain = 0
KPD3 111958Z 17014KT 34/14 A3005 RMK A01 T03400144  RH  031%=      5-min Rain = 0
KPD3 111959Z 18016KT 34/15 A3005 RMK A01 T03420148  RH  031%=      5-min Rain = 0
KPD3 112000Z 18015KT 35/15 A3005 RMK A01 T03450152  RH  031%=      5-min Rain = 0
KPD3 112001Z 17012KT 35/14 A3005 RMK A01 T03460143  RH  029%=      5-min Rain = 0
KPD3 112002Z 17013KT 35/15 A3005 RMK A01 T03460152  RH  031%=      5-min Rain = 0
KPD3 112003Z 18011KT 35/14 A3005 RMK A01 T03470143  RH  029%=      5-min Rain = 0
KPD3 112004Z 18014G21KT 35/14 A3005 RMK A01 T03460141  RH  029%=      5-min Rain = 0
KPD3 112005Z 19019KT 34/13 A3004 RMK A01 T03390132  RH  029%=      5-min Rain = 0
KPD3 112006Z 18019KT 33/13 A3005 RMK A01 T03330134  RH  030%=      5-min Rain = 0
KPD3 112007Z 18018KT 33/14 A3005 RMK A01 T03330137  RH  030%=      5-min Rain = 0
KPD3 112008Z 18015KT 34/14 A3005 RMK A01 T03370141  RH  031%=      5-min Rain = 0
KPD3 112009Z 18013KT 34/14 A3004 RMK A01 T03390142  RH  031%=      5-min Rain = 0
KPD3 112010Z 18014KT 34/14 A3005 RMK A01 T03390142  RH  031%=      5-min Rain = 0
KPD3 112011Z 18012KT 34/14 A3004 RMK A01 T03350136  RH  030%=      5-min Rain = 0
KPD3 112012Z 18009KT 33/14 A3004 RMK A01 T03320135  RH  030%=      5-min Rain = 0
KPD3 112013Z 17011G17KT 33/14 A3004 RMK A01 T03310140  RH  032%=      5-min Rain = 0
KPD3 112014Z 17017KT 34/15 A3004 RMK A01 T03350151  RH  033%=      5-min Rain = 0
KPD3 112015Z 18016KT 34/15 A3004 RMK A01 T03400152  RH  033%=      5-min Rain = 0
KPD3 112016Z 18017KT 34/15 A3004 RMK A01 T03420154  RH  032%=      5-min Rain = 0
KPD3 112017Z 19015G20KT 35/16 A3004 RMK A01 T03450164  RH  034%=      5-min Rain = 0
KPD3 112018Z 19015KT 35/16 A3004 RMK A01 T03480163  RH  033%=      5-min Rain = 0
KPD3 112019Z 19017KT 34/15 A3004 RMK A01 T03430147  RH  031%=      5-min Rain = 0
KPD3 112020Z 19014KT 34/15 A3004 RMK A01 T03390148  RH  032%=      5-min Rain = 0
KPD3 112021Z 19012KT 34/16 A3004 RMK A01 T03420157  RH  033%=      5-min Rain = 0
KPD3 112022Z 18014KT 35/16 A3004 RMK A01 T03460159  RH  033%=      5-min Rain = 0
KPD3 112023Z 18015KT 35/16 A3004 RMK A01 T03470155  RH  032%=      5-min Rain = 0
KPD3 112024Z 18013KT 35/15 A3004 RMK A01 T03470150  RH  031%=      5-min Rain = 0
KPD3 112025Z 17015KT 35/15 A3004 RMK A01 T03460153  RH  032%=      5-min Rain = 0
KPD3 112026Z 17011KT 35/15 A3004 RMK A01 T03460147  RH  031%=      5-min Rain = 0
KPD3 112027Z 17011KT 34/15 A3004 RMK A01 T03440150  RH  031%=      5-min Rain = 0
KPD3 112028Z 16011KT 34/16 A3004 RMK A01 T03410158  RH  033%=      5-min Rain = 0
KPD3 112029Z 16013KT 34/15 A3004 RMK A01 T03390154  RH  033%=      5-min Rain = 0
KPD3 112030Z 16014KT 34/15 A3004 RMK A01 T03360147  RH  032%=      5-min Rain = 0
KPD3 112031Z 16013KT 33/14 A3004 RMK A01 T03340140  RH  031%=      5-min Rain = 0
KPD3 112032Z 15009KT 33/15 A3003 RMK A01 T03330147  RH  033%=      5-min Rain = 0
KPD3 112033Z 15010KT 33/15 A3003 RMK A01 T03320148  RH  033%=      5-min Rain = 0
KPD3 112034Z 16009KT 33/14 A3003 RMK A01 T03320144  RH  032%=      5-min Rain = 0
KPD3 112035Z 15011KT 33/15 A3003 RMK A01 T03330148  RH  033%=      5-min Rain = 0
KPD3 112036Z 16013KT 34/15 A3003 RMK A01 T03360149  RH  033%=      5-min Rain = 0
KPD3 112037Z 16015KT 34/15 A3003 RMK A01 T03370145  RH  032%=      5-min Rain = 0
KPD3 112038Z 16013KT 34/14 A3003 RMK A01 T03350137  RH  030%=      5-min Rain = 0
KPD3 112039Z 18013KT 34/14 A3003 RMK A01 T03350140  RH  031%=      5-min Rain = 0
KPD3 112040Z 16011KT 34/15 A3003 RMK A01 T03380149  RH  032%=      5-min Rain = 0
KPD3 112041Z 15013KT 34/15 A3003 RMK A01 T03440154  RH  032%=      5-min Rain = 0
KPD3 112042Z 17014KT 35/16 A3003 RMK A01 T03470155  RH  032%=      5-min Rain = 0
KPD3 112043Z 16013G19KT 35/15 A3003 RMK A01 T03480152  RH  031%=      5-min Rain = 0
KPD3 112044Z 16018KT 35/15 A3003 RMK A01 T03490147  RH  030%=      5-min Rain = 0
KPD3 112045Z 19014KT 35/15 A3003 RMK A01 T03490148  RH  030%=      5-min Rain = 0
KPD3 112046Z 18013KT 35/15 A3003 RMK A01 T03490154  RH  031%=      5-min Rain = 0
KPD3 112047Z 17015KT 35/15 A3003 RMK A01 T03500154  RH  031%=      5-min Rain = 0
KPD3 112048Z 18016KT 35/16 A3003 RMK A01 T03500156  RH  031%=      5-min Rain = 0
KPD3 112049Z 19013KT 34/15 A3003 RMK A01 T03440152  RH  032%=      5-min Rain = 0
KPD3 112050Z 20015KT 34/15 A3003 RMK A01 T03380146  RH  032%=      5-min Rain = 0
KPD3 112051Z 19013KT 33/14 A3003 RMK A01 T03340143  RH  032%=      5-min Rain = 0
KPD3 112052Z 18012KT 34/15 A3003 RMK A01 T03370150  RH  033%=      5-min Rain = 0
KPD3 112053Z 19013KT 34/15 A3003 RMK A01 T03400149  RH  032%=      5-min Rain = 0
KPD3 112054Z 19013KT 34/15 A3002 RMK A01 T03410149  RH  032%=      5-min Rain = 0
KPD3 112055Z 19011KT 34/15 A3002 RMK A01 T03390145  RH  031%=      5-min Rain = 0
KPD3 112056Z 19012KT 34/15 A3002 RMK A01 T03380148  RH  032%=      5-min Rain = 0
KPD3 112057Z 19012KT 34/15 A3002 RMK A01 T03380145  RH  031%=      5-min Rain = 0
KPD3 112058Z 19012KT 34/14 A3002 RMK A01 T03380144  RH  031%=      5-min Rain = 0
KPD3 112059Z 17011KT 34/15 A3002 RMK A01 T03360154  RH  033%=      5-min Rain = 0
KPD3 112100Z 18014KT 34/15 A3002 RMK A01 T03350149  RH  033%=      5-min Rain = 0
KPD3 112101Z 17015KT 33/15 A3002 RMK A01 T03340145  RH  032%=      5-min Rain = 0
KPD3 112102Z 17014KT 33/14 A3002 RMK A01 T03320144  RH  032%=      5-min Rain = 0
KPD3 112103Z 17013KT 33/15 A3002 RMK A01 T03310148  RH  033%=      5-min Rain = 0
KPD3 112104Z 17013KT 33/14 A3002 RMK A01 T03310143  RH  032%=      5-min Rain = 0
KPD3 112105Z 18012KT 33/14 A3002 RMK A01 T03300144  RH  032%=      5-min Rain = 0
KPD3 112106Z 17011KT 33/15 A3002 RMK A01 T03300148  RH  033%=      5-min Rain = 0
KPD3 112107Z 17014KT 33/15 A3002 RMK A01 T03300145  RH  033%=      5-min Rain = 0
KPD3 112108Z 17011KT 33/14 A3002 RMK A01 T03300144  RH  032%=      5-min Rain = 0
KPD3 112109Z 17011KT 33/14 A3002 RMK A01 T03300143  RH  032%=      5-min Rain = 0
KPD3 112110Z 17009KT 33/14 A3002 RMK A01 T03310144  RH  032%=      5-min Rain = 0
KPD3 112111Z 17009KT 33/15 A3002 RMK A01 T03320147  RH  033%=      5-min Rain = 0
KPD3 112112Z 18011KT 33/15 A3002 RMK A01 T03320147  RH  033%=      5-min Rain = 0
KPD3 112113Z 18014KT 33/14 A3002 RMK A01 T03320144  RH  032%=      5-min Rain = 0
KPD3 112114Z 17013KT 33/14 A3002 RMK A01 T03320144  RH  032%=      5-min Rain = 0
KPD3 112115Z 18015KT 33/14 A3002 RMK A01 T03330144  RH  032%=      5-min Rain = 0
KPD3 112116Z 18012KT 33/14 A3002 RMK A01 T03340143  RH  032%=      5-min Rain = 0
KPD3 112117Z 19012KT 33/14 A3002 RMK A01 T03340143  RH  032%=      5-min Rain = 0
KPD3 112118Z 18010KT 34/15 A3002 RMK A01 T03350146  RH  032%=      5-min Rain = 0
KPD3 112119Z 18012KT 34/15 A3001 RMK A01 T03370152  RH  033%=      5-min Rain = 0
KPD3 112120Z 17018KT 34/15 A3001 RMK A01 T03420147  RH  031%=      5-min Rain = 0
KPD3 112121Z 18016KT 34/14 A3001 RMK A01 T03440142  RH  030%=      5-min Rain = 0
KPD3 112122Z 18011KT 35/15 A3001 RMK A01 T03450145  RH  030%=      5-min Rain = 0
KPD3 112123Z 18013KT 35/15 A3001 RMK A01 T03470150  RH  031%=      5-min Rain = 0
KPD3 112124Z 19014KT 35/15 A3001 RMK A01 T03480152  RH  031%=      5-min Rain = 0
KPD3 112125Z 18010KT 35/16 A3001 RMK A01 T03500159  RH  032%=      5-min Rain = 0
KPD3 112126Z 19011KT 35/16 A3001 RMK A01 T03510158  RH  032%=      5-min Rain = 0
KPD3 112127Z 18012KT 35/16 A3001 RMK A01 T03520158  RH  032%=      5-min Rain = 0
KPD3 112128Z 18012KT 35/16 A3001 RMK A01 T03530155  RH  031%=      5-min Rain = 0
KPD3 112129Z 18013KT 35/14 A3001 RMK A01 T03500144  RH  029%=      5-min Rain = 0
KPD3 112130Z 18013KT 34/14 A3001 RMK A01 T03440137  RH  029%=      5-min Rain = 0
KPD3 112131Z 17014KT 34/14 A3001 RMK A01 T03390138  RH  030%=      5-min Rain = 0
KPD3 112132Z 17011KT 34/14 A3001 RMK A01 T03360143  RH  031%=      5-min Rain = 0
KPD3 112133Z 17012KT 33/15 A3001 RMK A01 T03340147  RH  032%=      5-min Rain = 0
KPD3 112134Z 18012KT 33/15 A3001 RMK A01 T03320145  RH  032%=      5-min Rain = 0
KPD3 112135Z 19012KT 33/15 A3001 RMK A01 T03310146  RH  033%=      5-min Rain = 0
KPD3 112136Z 19011KT 33/14 A3001 RMK A01 T03310144  RH  032%=      5-min Rain = 0
KPD3 112137Z 18014KT 33/14 A3001 RMK A01 T03310143  RH  032%=      5-min Rain = 0
KPD3 112138Z 17016KT 33/14 A3001 RMK A01 T03310140  RH  032%=      5-min Rain = 0
KPD3 112139Z 18014KT 33/14 A3001 RMK A01 T03310139  RH  031%=      5-min Rain = 0
KPD3 112140Z 19013KT 33/14 A3001 RMK A01 T03300141  RH  032%=      5-min Rain = 0
KPD3 112141Z 19011KT 33/15 A3001 RMK A01 T03310146  RH  033%=      5-min Rain = 0
KPD3 112142Z 19013KT 33/15 A3001 RMK A01 T03320148  RH  033%=      5-min Rain = 0
KPD3 112143Z 17013KT 33/15 A3001 RMK A01 T03340148  RH  033%=      5-min Rain = 0
KPD3 112144Z 18015KT 33/15 A3001 RMK A01 T03340149  RH  033%=      5-min Rain = 0
KPD3 112145Z 17018KT 33/15 A3001 RMK A01 T03340146  RH  032%=      5-min Rain = 0
KPD3 112146Z 17018KT 33/14 A3001 RMK A01 T03330143  RH  032%=      5-min Rain = 0
KPD3 112147Z 17016KT 33/15 A3001 RMK A01 T03330145  RH  032%=      5-min Rain = 0
KPD3 112148Z 17015KT 34/15 A30 RMK A01 T03350148  RH  032%=      5-min Rain = 0
KPD3 112149Z 17017KT 34/15 A30 RMK A01 T03390149  RH  032%=      5-min Rain = 0
KPD3 112150Z 18015KT 34/14 A30 RMK A01 T03390143  RH  031%=      5-min Rain = 0
KPD3 112151Z 18013KT 34/15 A30 RMK A01 T03370150  RH  032%=      5-min Rain = 0
KPD3 112152Z 17015KT 34/15 A30 RMK A01 T03360145  RH  032%=      5-min Rain = 0
KPD3 112153Z 18014KT 34/14 A30 RMK A01 T03380144  RH  031%=      5-min Rain = 0
KPD3 112154Z 17012KT 34/15 A30 RMK A01 T03410147  RH  031%=      5-min Rain = 0
KPD3 112155Z 17010KT 34/15 A30 RMK A01 T03410151  RH  032%=      5-min Rain = 0
KPD3 112156Z 16014KT 34/15 A30 RMK A01 T03400153  RH  033%=      5-min Rain = 0
KPD3 112157Z 16014KT 34/15 A30 RMK A01 T03410150  RH  032%=      5-min Rain = 0
KPD3 112158Z 15013KT 34/15 A30 RMK A01 T03420151  RH  032%=      5-min Rain = 0
KPD3 112159Z 16013KT 34/15 A30 RMK A01 T03430151  RH  032%=      5-min Rain = 0
KPD3 112200Z 16015KT 34/15 A30 RMK A01 T03410150  RH  032%=      5-min Rain = 0
KPD3 112201Z 16013KT 34/15 A30 RMK A01 T03390153  RH  033%=      5-min Rain = 0
KPD3 112202Z 15011KT 34/15 A30 RMK A01 T03350153  RH  034%=      5-min Rain = 0
KPD3 112203Z 17010KT 33/15 A2999 RMK A01 T03330152  RH  034%=      5-min Rain = 0
KPD3 112204Z 17008KT 33/15 A2999 RMK A01 T03310151  RH  034%=      5-min Rain = 0
KPD3 112205Z 17010KT 33/15 A2999 RMK A01 T03300148  RH  033%=      5-min Rain = 0
KPD3 112206Z 17010KT 33/15 A2999 RMK A01 T03300149  RH  034%=      5-min Rain = 0
KPD3 112207Z 15012KT 33/15 A2999 RMK A01 T03300145  RH  033%=      5-min Rain = 0
KPD3 112208Z 14015KT 33/15 A2999 RMK A01 T03320152  RH  034%=      5-min Rain = 0
KPD3 112209Z 14012KT 33/16 A2999 RMK A01 T03340161  RH  036%=      5-min Rain = 0
KPD3 112210Z 14011KT 34/16 A2999 RMK A01 T03360161  RH  035%=      5-min Rain = 0
KPD3 112211Z 14013KT 34/16 A2999 RMK A01 T03380162  RH  035%=      5-min Rain = 0
KPD3 112212Z 15014KT 34/16 A2999 RMK A01 T03390160  RH  034%=      5-min Rain = 0
KPD3 112213Z 16018KT 34/16 A2999 RMK A01 T03370158  RH  034%=      5-min Rain = 0
KPD3 112214Z 16014KT 33/15 A2999 RMK A01 T03340153  RH  034%=      5-min Rain = 0
KPD3 112215Z 15013KT 33/15 A2999 RMK A01 T03320150  RH  033%=      5-min Rain = 0
KPD3 112216Z 16012KT 33/15 A2999 RMK A01 T03310151  RH  034%=      5-min Rain = 0
KPD3 112217Z 17013KT 33/16 A2999 RMK A01 T03320155  RH  035%=      5-min Rain = 0
KPD3 112218Z 16016KT 33/15 A2999 RMK A01 T03340152  RH  034%=      5-min Rain = 0
KPD3 112219Z 16014KT 33/16 A2999 RMK A01 T03340158  RH  035%=      5-min Rain = 0
KPD3 112220Z 16012KT 33/16 A2999 RMK A01 T03340161  RH  036%=      5-min Rain = 0
KPD3 112221Z 16013KT 33/16 A2999 RMK A01 T03320156  RH  035%=      5-min Rain = 0
KPD3 112222Z 16014KT 33/15 A2999 RMK A01 T03310151  RH  034%=      5-min Rain = 0
KPD3 112223Z 16012KT 33/15 A2999 RMK A01 T03320151  RH  034%=      5-min Rain = 0
KPD3 112224Z 16011KT 33/16 A2999 RMK A01 T03310156  RH  035%=      5-min Rain = 0
KPD3 112225Z 17012KT 33/15 A2999 RMK A01 T03290154  RH  035%=      5-min Rain = 0
KPD3 112226Z 16011KT 33/16 A2999 RMK A01 T03270155  RH  035%=      5-min Rain = 0
KPD3 112227Z 15012KT 33/15 A2999 RMK A01 T03270154  RH  035%=      5-min Rain = 0
KPD3 112228Z 15012KT 33/15 A2999 RMK A01 T03270150  RH  035%=      5-min Rain = 0
KPD3 112229Z 14010KT 33/15 A2999 RMK A01 T03270152  RH  035%=      5-min Rain = 0
KPD3 112230Z 14011KT 33/15 A2999 RMK A01 T03270149  RH  034%=      5-min Rain = 0
KPD3 112231Z 14010KT 33/15 A2999 RMK A01 T03280151  RH  035%=      5-min Rain = 0
KPD3 112232Z 14011KT 33/16 A2999 RMK A01 T03300155  RH  035%=      5-min Rain = 0
KPD3 112233Z 15010KT 33/16 A2999 RMK A01 T03320155  RH  035%=      5-min Rain = 0
KPD3 112234Z 14011KT 33/16 A2999 RMK A01 T03330160  RH  035%=      5-min Rain = 0
KPD3 112235Z 14014KT 33/16 A2999 RMK A01 T03330158  RH  035%=      5-min Rain = 0
KPD3 112236Z 14016KT 33/15 A2999 RMK A01 T03310152  RH  034%=      5-min Rain = 0
KPD3 112237Z 14016KT 33/15 A2999 RMK A01 T03290151  RH  034%=      5-min Rain = 0
KPD3 112238Z 14016KT 33/15 A2999 RMK A01 T03280150  RH  034%=      5-min Rain = 0
KPD3 112239Z 14018KT 33/15 A2999 RMK A01 T03280147  RH  034%=      5-min Rain = 0
KPD3 112240Z 14014KT 33/14 A2999 RMK A01 T03280143  RH  033%=      5-min Rain = 0
KPD3 112241Z 14013KT 33/15 A2999 RMK A01 T03280146  RH  033%=      5-min Rain = 0
KPD3 112242Z 14013KT 33/15 A2999 RMK A01 T03280150  RH  034%=      5-min Rain = 0
KPD3 112243Z 15015KT 33/15 A2999 RMK A01 T03280146  RH  034%=      5-min Rain = 0
KPD3 112244Z 14013KT 33/15 A2999 RMK A01 T03280147  RH  034%=      5-min Rain = 0
KPD3 112245Z 14010KT 33/15 A2999 RMK A01 T03280149  RH  034%=      5-min Rain = 0
KPD3 112246Z 14015KT 33/15 A2999 RMK A01 T03280148  RH  034%=      5-min Rain = 0
KPD3 112247Z 15014KT 33/15 A2999 RMK A01 T03280145  RH  033%=      5-min Rain = 0
KPD3 112248Z 16014KT 33/15 A2999 RMK A01 T03290145  RH  033%=      5-min Rain = 0
KPD3 112249Z 16012KT 33/15 A2999 RMK A01 T03300148  RH  034%=      5-min Rain = 0
KPD3 112250Z 16011KT 33/15 A2999 RMK A01 T03310152  RH  034%=      5-min Rain = 0
KPD3 112251Z 16013KT 33/15 A2999 RMK A01 T03320154  RH  034%=      5-min Rain = 0
KPD3 112252Z 16015KT 33/15 A2999 RMK A01 T03330154  RH  034%=      5-min Rain = 0
KPD3 112253Z 17012KT 34/16 A2999 RMK A01 T03360157  RH  034%=      5-min Rain = 0
KPD3 112254Z 17016KT 34/15 A2999 RMK A01 T03390154  RH  033%=      5-min Rain = 0
KPD3 112255Z 16014KT 34/16 A2999 RMK A01 T03410155  RH  033%=      5-min Rain = 0
KPD3 112256Z 17014KT 34/16 A2999 RMK A01 T03420157  RH  033%=      5-min Rain = 0
KPD3 112257Z 17015KT 34/15 A2999 RMK A01 T03420149  RH  031%=      5-min Rain = 0
KPD3 112258Z 15015KT 34/15 A2999 RMK A01 T03420153  RH  032%=      5-min Rain = 0
KPD3 112259Z 15015KT 34/15 A2999 RMK A01 T03410146  RH  031%=      5-min Rain = 0
KPD3 112300Z 14012KT 34/15 A2999 RMK A01 T03390146  RH  032%=      5-min Rain = 0
KPD3 112301Z 15013KT 34/15 A2999 RMK A01 T03360147  RH  032%=      5-min Rain = 0
KPD3 112302Z 15015KT 34/15 A2999 RMK A01 T03350145  RH  032%=      5-min Rain = 0
KPD3 112303Z 15014KT 33/14 A2999 RMK A01 T03330143  RH  032%=      5-min Rain = 0
KPD3 112304Z 15014KT 33/14 A2999 RMK A01 T03330143  RH  032%=      5-min Rain = 0
KPD3 112305Z 15012KT 33/14 A2999 RMK A01 T03320144  RH  032%=      5-min Rain = 0
KPD3 112306Z 15011KT 33/15 A2999 RMK A01 T03310145  RH  033%=      5-min Rain = 0
KPD3 112307Z 15013KT 33/15 A2999 RMK A01 T03300145  RH  033%=      5-min Rain = 0
KPD3 112308Z 14014KT 33/14 A2999 RMK A01 T03290142  RH  032%=      5-min Rain = 0
KPD3 112309Z 14014KT 33/14 A2999 RMK A01 T03290143  RH  032%=      5-min Rain = 0
KPD3 112310Z 15012KT 33/14 A2999 RMK A01 T03290143  RH  032%=      5-min Rain = 0
KPD3 112311Z 15011KT 33/14 A2999 RMK A01 T03280143  RH  033%=      5-min Rain = 0
KPD3 112312Z 16010G16KT 33/15 A2999 RMK A01 T03290149  RH  034%=      5-min Rain = 0
KPD3 112313Z 17012KT 33/15 A2999 RMK A01 T03280146  RH  033%=      5-min Rain = 0
KPD3 112314Z 17015KT 33/14 A2999 RMK A01 T03280144  RH  033%=      5-min Rain = 0
KPD3 112315Z 17012KT 33/14 A2999 RMK A01 T03290143  RH  033%=      5-min Rain = 0
KPD3 112316Z 17012KT 33/15 A2999 RMK A01 T03290146  RH  033%=      5-min Rain = 0
KPD3 112317Z 17011KT 33/15 A2999 RMK A01 T03290147  RH  033%=      5-min Rain = 0
KPD3 112318Z 17012KT 33/15 A2999 RMK A01 T03290147  RH  033%=      5-min Rain = 0
KPD3 112319Z 17011KT 33/15 A2999 RMK A01 T03290146  RH  033%=      5-min Rain = 0
KPD3 112320Z 17012KT 33/15 A2999 RMK A01 T03290146  RH  033%=      5-min Rain = 0
KPD3 112321Z 17012KT 33/15 A2999 RMK A01 T03290147  RH  033%=      5-min Rain = 0
KPD3 112322Z 16013KT 33/14 A2999 RMK A01 T03290144  RH  033%=      5-min Rain = 0
KPD3 112323Z 17012KT 33/14 A2999 RMK A01 T03290144  RH  033%=      5-min Rain = 0
KPD3 112324Z 15009KT 33/15 A2999 RMK A01 T03290146  RH  033%=      5-min Rain = 0
KPD3 112325Z 15009KT 33/15 A2999 RMK A01 T03290152  RH  035%=      5-min Rain = 0
KPD3 112326Z 15011G16KT 33/15 A2999 RMK A01 T03290152  RH  035%=      5-min Rain = 0
KPD3 112327Z 16014KT 33/15 A2999 RMK A01 T03280147  RH  034%=      5-min Rain = 0
KPD3 112328Z 16013KT 33/15 A2999 RMK A01 T03280145  RH  033%=      5-min Rain = 0
KPD3 112329Z 17012KT 33/15 A2999 RMK A01 T03280145  RH  033%=      5-min Rain = 0
KPD3 112330Z 17013KT 33/15 A2999 RMK A01 T03280145  RH  033%=      5-min Rain = 0
KPD3 112331Z 16012KT 33/15 A2999 RMK A01 T03280145  RH  033%=      5-min Rain = 0
KPD3 112332Z 16011KT 33/14 A2999 RMK A01 T03280144  RH  033%=      5-min Rain = 0
KPD3 112333Z 15012KT 33/14 A2999 RMK A01 T03280144  RH  033%=      5-min Rain = 0
KPD3 112334Z 15012KT 33/15 A2999 RMK A01 T03280145  RH  033%=      5-min Rain = 0
KPD3 112335Z 16014KT 33/14 A2999 RMK A01 T03280144  RH  033%=      5-min Rain = 0
KPD3 112336Z 16014KT 33/14 A2999 RMK A01 T03290144  RH  033%=      5-min Rain = 0
KPD3 112337Z 17013KT 33/15 A2999 RMK A01 T03290145  RH  033%=      5-min Rain = 0
KPD3 112338Z 17014KT 33/14 A2999 RMK A01 T03290144  RH  033%=      5-min Rain = 0
KPD3 112339Z 17013KT 33/15 A2999 RMK A01 T03300147  RH  033%=      5-min Rain = 0
KPD3 112340Z 17014KT 33/15 A2999 RMK A01 T03300145  RH  033%=      5-min Rain = 0
KPD3 112341Z 16014KT 33/14 A2999 RMK A01 T03300143  RH  033%=      5-min Rain = 0
KPD3 112342Z 16011KT 33/15 A2999 RMK A01 T03290147  RH  033%=      5-min Rain = 0
KPD3 112343Z 16011KT 33/15 A2999 RMK A01 T03280146  RH  033%=      5-min Rain = 0
KPD3 112344Z 16011KT 33/14 A2999 RMK A01 T03280144  RH  033%=      5-min Rain = 0
KPD3 112345Z 16012KT 33/15 A2999 RMK A01 T03290146  RH  033%=      5-min Rain = 0
KPD3 112346Z 15014KT 33/15 A2999 RMK A01 T03310148  RH  033%=      5-min Rain = 0
KPD3 112347Z 15013KT 33/15 A2999 RMK A01 T03330150  RH  033%=      5-min Rain = 0
KPD3 112348Z 16014KT 33/15 A2999 RMK A01 T03340148  RH  033%=      5-min Rain = 0
KPD3 112349Z 16012KT 33/15 A2999 RMK A01 T03340149  RH  033%=      5-min Rain = 0
KPD3 112350Z 16012KT 33/15 A2999 RMK A01 T03330147  RH  033%=      5-min Rain = 0
KPD3 112351Z 16013KT 33/15 A2999 RMK A01 T03330148  RH  033%=      5-min Rain = 0
KPD3 112352Z 16011KT 34/15 A2999 RMK A01 T03350150  RH  033%=      5-min Rain = 0
KPD3 112353Z 16011KT 34/15 A2999 RMK A01 T03370152  RH  033%=      5-min Rain = 0
KPD3 112354Z 16011KT 34/15 A2999 RMK A01 T03380151  RH  033%=      5-min Rain = 0
KPD3 112355Z 16014KT 34/15 A2999 RMK A01 T03390153  RH  033%=      5-min Rain = 0
KPD3 112356Z 16013KT 34/15 A2999 RMK A01 T03390152  RH  033%=      5-min Rain = 0
KPD3 112357Z 16014KT 34/15 A2999 RMK A01 T03380149  RH  032%=      5-min Rain = 0
KPD3 112358Z 16012KT 34/15 A2999 RMK A01 T03380147  RH  032%=      5-min Rain = 0
KPD3 112359Z 15013KT 34/15 A2999 RMK A01 T03370146  RH  032%=      5-min Rain = 0
KPD3 120000Z 15012KT 34/15 A2999 RMK A01 T03350145  RH  032%=      5-min Rain = 0
KPD3 120001Z 15010KT 33/15 A2999 RMK A01 T03340149  RH  033%=      5-min Rain = 0
KPD3 120002Z 15012KT 33/15 A2999 RMK A01 T03330146  RH  033%=      5-min Rain = 0
KPD3 120003Z 15014KT 33/14 A2999 RMK A01 T03320141  RH  032%=      5-min Rain = 0
KPD3 120004Z 15011KT 33/15 A2999 RMK A01 T03330149  RH  033%=      5-min Rain = 0
KPD3 120005Z 15013KT 33/15 A2999 RMK A01 T03340148  RH  033%=      5-min Rain = 0
KPD3 120006Z 15011KT 34/15 A2999 RMK A01 T03360148  RH  032%=      5-min Rain = 0
KPD3 120007Z 15013KT 34/15 A2999 RMK A01 T03360151  RH  033%=      5-min Rain = 0
KPD3 120008Z 15015KT 34/15 A2999 RMK A01 T03360145  RH  032%=      5-min Rain = 0
KPD3 120009Z 15013KT 34/15 A2999 RMK A01 T03370146  RH  032%=      5-min Rain = 0
KPD3 120010Z 15013KT 34/15 A2999 RMK A01 T03370148  RH  032%=      5-min Rain = 0
KPD3 120011Z 15014KT 34/15 A2999 RMK A01 T03370148  RH  032%=      5-min Rain = 0
KPD3 120012Z 15014KT 34/15 A2999 RMK A01 T03360145  RH  032%=      5-min Rain = 0
KPD3 120013Z 16012KT 33/15 A2999 RMK A01 T03340145  RH  032%=      5-min Rain = 0
KPD3 120014Z 16013KT 33/14 A2999 RMK A01 T03330144  RH  032%=      5-min Rain = 0
KPD3 120015Z 16012KT 33/14 A2999 RMK A01 T03320144  RH  032%=      5-min Rain = 0
KPD3 120016Z 16010KT 33/15 A2999 RMK A01 T03320146  RH  033%=      5-min Rain = 0
KPD3 120017Z 15014KT 33/14 A2999 RMK A01 T03310144  RH  032%=      5-min Rain = 0
KPD3 120018Z 15013KT 33/14 A2999 RMK A01 T03310141  RH  032%=      5-min Rain = 0
KPD3 120019Z 15012KT 33/14 A2999 RMK A01 T03310142  RH  032%=      5-min Rain = 0
KPD3 120020Z 15011KT 33/14 A2999 RMK A01 T03310144  RH  032%=      5-min Rain = 0
KPD3 120021Z 15012KT 33/14 A2999 RMK A01 T03300144  RH  033%=      5-min Rain = 0
KPD3 120022Z 15012KT 33/14 A2999 RMK A01 T03290143  RH  032%=      5-min Rain = 0
KPD3 120023Z 15012KT 33/14 A2999 RMK A01 T03290143  RH  032%=      5-min Rain = 0
KPD3 120024Z 15012KT 33/14 A2999 RMK A01 T03290143  RH  032%=      5-min Rain = 0
KPD3 120025Z 15013KT 33/14 A2999 RMK A01 T03300144  RH  033%=      5-min Rain = 0
KPD3 120026Z 15012KT 33/14 A2999 RMK A01 T03300143  RH  032%=      5-min Rain = 0
KPD3 120027Z 15011G16KT 33/15 A2999 RMK A01 T03290146  RH  033%=      5-min Rain = 0
KPD3 120028Z 14013KT 33/14 A2999 RMK A01 T03280142  RH  032%=      5-min Rain = 0
KPD3 120029Z 14016KT 33/14 A2999 RMK A01 T03270141  RH  032%=      5-min Rain = 0
KPD3 120030Z 15013KT 33/14 A2999 RMK A01 T03280139  RH  032%=      5-min Rain = 0
KPD3 120031Z 15010KT 33/14 A2999 RMK A01 T03280143  RH  033%=      5-min Rain = 0
KPD3 120032Z 15011KT 33/14 A2999 RMK A01 T03270144  RH  033%=      5-min Rain = 0
KPD3 120033Z 15012KT 33/14 A2999 RMK A01 T03270141  RH  032%=      5-min Rain = 0
KPD3 120034Z 15010KT 33/14 A2999 RMK A01 T03270143  RH  033%=      5-min Rain = 0
KPD3 120035Z 15009KT 33/14 A2999 RMK A01 T03270144  RH  033%=      5-min Rain = 0
KPD3 120036Z 15011KT 33/14 A2999 RMK A01 T03260144  RH  033%=      5-min Rain = 0
KPD3 120037Z 15011KT 33/14 A2999 RMK A01 T03250143  RH  033%=      5-min Rain = 0
KPD3 120038Z 15010KT 33/14 A2999 RMK A01 T03260143  RH  033%=      5-min Rain = 0
KPD3 120039Z 16010KT 33/14 A2999 RMK A01 T03250144  RH  034%=      5-min Rain = 0
KPD3 120040Z 16010KT 33/14 A2999 RMK A01 T03250144  RH  034%=      5-min Rain = 0
KPD3 120041Z 16010KT 33/15 A2999 RMK A01 T03250145  RH  034%=      5-min Rain = 0
KPD3 120042Z 16009KT 32/15 A2999 RMK A01 T03240145  RH  034%=      5-min Rain = 0
KPD3 120043Z 16010KT 32/14 A2999 RMK A01 T03240144  RH  034%=      5-min Rain = 0
KPD3 120044Z 16011KT 32/14 A2999 RMK A01 T03240142  RH  033%=      5-min Rain = 0
KPD3 120045Z 16010KT 32/14 A2999 RMK A01 T03240144  RH  034%=      5-min Rain = 0
KPD3 120046Z 15009KT 32/15 A2999 RMK A01 T03240145  RH  034%=      5-min Rain = 0
KPD3 120047Z 15009KT 32/15 A2999 RMK A01 T03230145  RH  034%=      5-min Rain = 0
KPD3 120048Z 15010KT 32/15 A2999 RMK A01 T03230145  RH  034%=      5-min Rain = 0
KPD3 120049Z 16009KT 32/15 A2999 RMK A01 T03230145  RH  034%=      5-min Rain = 0
KPD3 120050Z 16008KT 32/15 A2999 RMK A01 T03220145  RH  034%=      5-min Rain = 0
KPD3 120051Z 16008KT 32/15 A2999 RMK A01 T03220146  RH  035%=      5-min Rain = 0
KPD3 120052Z 16009KT 32/15 A2999 RMK A01 T03210145  RH  034%=      5-min Rain = 0
KPD3 120053Z 15011KT 32/15 A30 RMK A01 T03210145  RH  034%=      5-min Rain = 0
KPD3 120054Z 15010KT 32/14 A30 RMK A01 T03210143  RH  034%=      5-min Rain = 0
KPD3 120055Z 15010KT 32/15 A30 RMK A01 T03210145  RH  034%=      5-min Rain = 0
KPD3 120056Z 16010KT 32/14 A30 RMK A01 T03210142  RH  034%=      5-min Rain = 0
KPD3 120057Z 16011KT 32/14 A30 RMK A01 T03210142  RH  034%=      5-min Rain = 0
KPD3 120058Z 16011KT 32/14 A30 RMK A01 T03210139  RH  033%=      5-min Rain = 0
KPD3 120059Z 16009KT 32/14 A30 RMK A01 T03230142  RH  033%=      5-min Rain = 0
KPD3 120100Z 15009KT 32/15 A30 RMK A01 T03220145  RH  034%=      5-min Rain = 0
KPD3 120101Z 15011KT 32/14 A30 RMK A01 T03210143  RH  034%=      5-min Rain = 0
KPD3 120102Z 16011KT 32/14 A30 RMK A01 T03210140  RH  033%=      5-min Rain = 0
KPD3 120103Z 16009KT 32/14 A30 RMK A01 T03210141  RH  033%=      5-min Rain = 0
KPD3 120104Z 16009KT 32/14 A30 RMK A01 T03210143  RH  034%=      5-min Rain = 0
KPD3 120105Z 16010KT 32/14 A30 RMK A01 T03200141  RH  034%=      5-min Rain = 0
KPD3 120106Z 16010KT 32/14 A30 RMK A01 T03200140  RH  034%=      5-min Rain = 0
KPD3 120107Z 16009KT 32/14 A30 RMK A01 T03200141  RH  034%=      5-min Rain = 0
KPD3 120108Z 15008KT 32/14 A30 RMK A01 T03200140  RH  034%=      5-min Rain = 0
KPD3 120109Z 15008KT 32/14 A30 RMK A01 T03200142  RH  034%=      5-min Rain = 0
KPD3 120110Z 15009KT 32/14 A30 RMK A01 T03200142  RH  034%=      5-min Rain = 0
KPD3 120111Z 15008KT 32/14 A30 RMK A01 T03200142  RH  034%=      5-min Rain = 0
KPD3 120112Z 15008KT 32/14 A30 RMK A01 T03200143  RH  034%=      5-min Rain = 0
KPD3 120113Z 15008KT 32/14 A30 RMK A01 T03200144  RH  035%=      5-min Rain = 0
KPD3 120114Z 15007KT 32/15 A30 RMK A01 T03190146  RH  035%=      5-min Rain = 0
KPD3 120115Z 15007KT 32/15 A30 RMK A01 T03170145  RH  035%=      5-min Rain = 0
KPD3 120116Z 15008KT 32/15 A30 RMK A01 T03160146  RH  036%=      5-min Rain = 0
KPD3 120117Z 15008KT 32/14 A30 RMK A01 T03150144  RH  035%=      5-min Rain = 0
KPD3 120118Z 15009KT 32/14 A30 RMK A01 T03150142  RH  035%=      5-min Rain = 0
KPD3 120119Z 15009KT 32/14 A30 RMK A01 T03150143  RH  035%=      5-min Rain = 0
KPD3 120120Z 15009KT 32/14 A30 RMK A01 T03150142  RH  035%=      5-min Rain = 0
KPD3 120121Z 15009KT 32/14 A30 RMK A01 T03150142  RH  035%=      5-min Rain = 0
KPD3 120122Z 15010KT 32/14 A30 RMK A01 T03150141  RH  035%=      5-min Rain = 0
KPD3 120123Z 15009KT 32/14 A30 RMK A01 T03160142  RH  035%=      5-min Rain = 0
KPD3 120124Z 15008KT 32/14 A30 RMK A01 T03160144  RH  035%=      5-min Rain = 0
KPD3 120125Z 15009KT 31/14 A30 RMK A01 T03140143  RH  035%=      5-min Rain = 0
KPD3 120126Z 15009KT 31/14 A30 RMK A01 T03140144  RH  036%=      5-min Rain = 0
KPD3 120127Z 15009KT 31/14 A30 RMK A01 T03140142  RH  035%=      5-min Rain = 0
KPD3 120128Z 15009KT 31/14 A30 RMK A01 T03140142  RH  035%=      5-min Rain = 0
KPD3 120129Z 15009KT 31/14 A30 RMK A01 T03140143  RH  035%=      5-min Rain = 0
KPD3 120130Z 15009KT 31/14 A30 RMK A01 T03140142  RH  035%=      5-min Rain = 0
KPD3 120131Z 15009KT 31/14 A30 RMK A01 T03140143  RH  035%=      5-min Rain = 0
KPD3 120132Z 15009KT 31/14 A30 RMK A01 T03140143  RH  035%=      5-min Rain = 0
KPD3 120133Z 15008KT 31/14 A30 RMK A01 T03140144  RH  036%=      5-min Rain = 0
KPD3 120134Z 15008KT 31/14 A30 RMK A01 T03130144  RH  036%=      5-min Rain = 0
KPD3 120135Z 15008KT 31/14 A30 RMK A01 T03130144  RH  036%=      5-min Rain = 0
KPD3 120136Z 15008KT 31/14 A30 RMK A01 T03120144  RH  036%=      5-min Rain = 0
KPD3 120137Z 15008KT 31/14 A30 RMK A01 T03120144  RH  036%=      5-min Rain = 0
KPD3 120138Z 15008KT 31/15 A30 RMK A01 T03120145  RH  036%=      5-min Rain = 0
KPD3 120139Z 15008KT 31/14 A3001 RMK A01 T03110144  RH  036%=      5-min Rain = 0
KPD3 120140Z 15008KT 31/15 A3001 RMK A01 T03110145  RH  037%=      5-min Rain = 0
KPD3 120141Z 15008KT 31/15 A3001 RMK A01 T03100145  RH  037%=      5-min Rain = 0
KPD3 120142Z 15008KT 31/15 A3001 RMK A01 T03090146  RH  037%=      5-min Rain = 0
KPD3 120143Z 14008KT 31/15 A3001 RMK A01 T03080146  RH  037%=      5-min Rain = 0
KPD3 120144Z 14008KT 31/15 A3001 RMK A01 T03070146  RH  038%=      5-min Rain = 0
KPD3 120145Z 14007KT 31/15 A3001 RMK A01 T03060147  RH  038%=      5-min Rain = 0
KPD3 120146Z 14008KT 31/15 A3001 RMK A01 T03050146  RH  038%=      5-min Rain = 0
KPD3 120147Z 14007KT 31/15 A3001 RMK A01 T03050146  RH  038%=      5-min Rain = 0
KPD3 120148Z 14007KT 30/15 A3001 RMK A01 T03030146  RH  038%=      5-min Rain = 0
KPD3 120149Z 14007KT 30/15 A3001 RMK A01 T03030147  RH  039%=      5-min Rain = 0
KPD3 120150Z 14007KT 30/15 A3001 RMK A01 T03010147  RH  039%=      5-min Rain = 0
KPD3 120151Z 14007KT 30/15 A3001 RMK A01 T03000148  RH  040%=      5-min Rain = 0
KPD3 120152Z 14007KT 30/15 A3001 RMK A01 T02990147  RH  040%=      5-min Rain = 0
KPD3 120153Z 14007KT 30/15 A3001 RMK A01 T02980147  RH  040%=      5-min Rain = 0
KPD3 120154Z 14007KT 30/15 A3001 RMK A01 T02970147  RH  040%=      5-min Rain = 0
KPD3 120155Z 14007KT 30/15 A3001 RMK A01 T02960147  RH  040%=      5-min Rain = 0
KPD3 120156Z 14007KT 30/15 A3001 RMK A01 T02950147  RH  040%=      5-min Rain = 0
KPD3 120157Z 15007KT 29/15 A3001 RMK A01 T02940146  RH  040%=      5-min Rain = 0
KPD3 120158Z 15007KT 29/15 A3001 RMK A01 T02940147  RH  041%=      5-min Rain = 0
KPD3 120159Z 15007KT 29/15 A3001 RMK A01 T02930147  RH  041%=      5-min Rain = 0
KPD3 120200Z 15007KT 29/15 A3001 RMK A01 T02920147  RH  041%=      5-min Rain = 0
KPD3 120201Z 15007KT 29/15 A3001 RMK A01 T02900147  RH  042%=      5-min Rain = 0
KPD3 120202Z 15007KT 29/15 A3001 RMK A01 T02890147  RH  042%=      5-min Rain = 0
KPD3 120203Z 15007KT 29/15 A3001 RMK A01 T02880147  RH  042%=      5-min Rain = 0
KPD3 120204Z 15007KT 29/15 A3001 RMK A01 T02870146  RH  042%=      5-min Rain = 0
KPD3 120205Z 15007KT 29/15 A3001 RMK A01 T02860146  RH  042%=      5-min Rain = 0
KPD3 120206Z 15007KT 29/15 A3001 RMK A01 T02850146  RH  043%=      5-min Rain = 0
KPD3 120207Z 15007KT 28/15 A3001 RMK A01 T02840146  RH  043%=      5-min Rain = 0
KPD3 120208Z 15007KT 28/15 A3001 RMK A01 T02830146  RH  043%=      5-min Rain = 0
KPD3 120209Z 15007KT 28/15 A3001 RMK A01 T02820146  RH  043%=      5-min Rain = 0
KPD3 120210Z 15007KT 28/15 A3001 RMK A01 T02820146  RH  043%=      5-min Rain = 0
KPD3 120211Z 15007KT 28/15 A3001 RMK A01 T02810146  RH  044%=      5-min Rain = 0
KPD3 120212Z 15007KT 28/15 A3001 RMK A01 T02800146  RH  044%=      5-min Rain = 0
KPD3 120213Z 15007KT 28/15 A3001 RMK A01 T02800146  RH  044%=      5-min Rain = 0
KPD3 120214Z 15007KT 28/15 A3001 RMK A01 T02790146  RH  044%=      5-min Rain = 0
KPD3 120215Z 14007KT 28/15 A3001 RMK A01 T02790146  RH  044%=      5-min Rain = 0
KPD3 120216Z 14007KT 28/15 A3001 RMK A01 T02790146  RH  044%=      5-min Rain = 0
KPD3 120217Z 14007KT 28/15 A3001 RMK A01 T02780146  RH  044%=      5-min Rain = 0
KPD3 120218Z 14007KT 28/15 A3001 RMK A01 T02780146  RH  045%=      5-min Rain = 0
KPD3 120219Z 15008KT 28/15 A3001 RMK A01 T02770146  RH  045%=      5-min Rain = 0
KPD3 120220Z 14008KT 28/15 A3001 RMK A01 T02770146  RH  045%=      5-min Rain = 0
KPD3 120221Z 14008KT 28/15 A3001 RMK A01 T02760146  RH  045%=      5-min Rain = 0
KPD3 120222Z 14007KT 28/15 A3001 RMK A01 T02760146  RH  045%=      5-min Rain = 0
KPD3 120223Z 14007KT 28/15 A3001 RMK A01 T02760147  RH  045%=      5-min Rain = 0
KPD3 120224Z 14007KT 28/15 A3001 RMK A01 T02750147  RH  045%=      5-min Rain = 0
KPD3 120225Z 14007KT 27/15 A3002 RMK A01 T02740148  RH  046%=      5-min Rain = 0
KPD3 120226Z 14006KT 27/15 A3002 RMK A01 T02740147  RH  046%=      5-min Rain = 0
KPD3 120227Z 14006KT 27/15 A3002 RMK A01 T02730148  RH  046%=      5-min Rain = 0
KPD3 120228Z 13005KT 27/15 A3002 RMK A01 T02720148  RH  047%=      5-min Rain = 0
KPD3 120229Z 12005KT 27/15 A3002 RMK A01 T02710148  RH  047%=      5-min Rain = 0
KPD3 120230Z 11005KT 27/15 A3002 RMK A01 T02710150  RH  047%=      5-min Rain = 0
KPD3 120231Z 11004KT 27/15 A3002 RMK A01 T02690151  RH  048%=      5-min Rain = 0
KPD3 120232Z 12005KT 27/15 A3002 RMK A01 T02680151  RH  049%=      5-min Rain = 0
KPD3 120233Z 13005KT 27/15 A3002 RMK A01 T02670151  RH  049%=      5-min Rain = 0
KPD3 120234Z 13005KT 27/15 A3002 RMK A01 T02670150  RH  049%=      5-min Rain = 0
KPD3 120235Z 14005KT 27/15 A3002 RMK A01 T02660149  RH  048%=      5-min Rain = 0
KPD3 120236Z 14005KT 27/15 A3002 RMK A01 T02670149  RH  048%=      5-min Rain = 0
KPD3 120237Z 14004KT 27/15 A3002 RMK A01 T02660147  RH  048%=      5-min Rain = 0
KPD3 120238Z 14004KT 27/15 A3003 RMK A01 T02670147  RH  048%=      5-min Rain = 0
KPD3 120239Z 14004KT 27/15 A3003 RMK A01 T02670147  RH  047%=      5-min Rain = 0
KPD3 120240Z 14004KT 27/15 A3003 RMK A01 T02680146  RH  047%=      5-min Rain = 0
KPD3 120241Z 14004KT 27/15 A3003 RMK A01 T02690147  RH  047%=      5-min Rain = 0
KPD3 120242Z 13004KT 27/15 A3003 RMK A01 T02690145  RH  047%=      5-min Rain = 0
KPD3 120243Z 13004KT 27/15 A3003 RMK A01 T02690146  RH  047%=      5-min Rain = 0
KPD3 120244Z 13004KT 27/15 A3003 RMK A01 T02700148  RH  047%=      5-min Rain = 0
KPD3 120245Z 13004KT 27/15 A3003 RMK A01 T02710147  RH  047%=      5-min Rain = 0
KPD3 120246Z 13004KT 27/15 A3003 RMK A01 T02710148  RH  047%=      5-min Rain = 0
KPD3 120247Z 12004KT 27/15 A3003 RMK A01 T02720147  RH  046%=      5-min Rain = 0
KPD3 120248Z 12005KT 27/15 A3003 RMK A01 T02720146  RH  046%=      5-min Rain = 0
KPD3 120249Z 12005KT 27/15 A3003 RMK A01 T02720147  RH  046%=      5-min Rain = 0
KPD3 120250Z 12005KT 27/15 A3003 RMK A01 T02720149  RH  047%=      5-min Rain = 0
KPD3 120251Z 12005KT 27/15 A3003 RMK A01 T02720150  RH  047%=      5-min Rain = 0
KPD3 120252Z 12005KT 27/15 A3003 RMK A01 T02710149  RH  047%=      5-min Rain = 0
KPD3 120253Z 13005KT 27/15 A3003 RMK A01 T02710149  RH  047%=      5-min Rain = 0
KPD3 120254Z 13005KT 27/15 A3003 RMK A01 T02710151  RH  048%=      5-min Rain = 0
KPD3 120255Z 13005KT 27/15 A3003 RMK A01 T02700152  RH  048%=      5-min Rain = 0
KPD3 120256Z 13006KT 27/15 A3003 RMK A01 T02700152  RH  048%=      5-min Rain = 0
KPD3 120257Z 13006KT 27/15 A3003 RMK A01 T02690152  RH  049%=      5-min Rain = 0
KPD3 120258Z 13005KT 27/15 A3003 RMK A01 T02690153  RH  049%=      5-min Rain = 0
KPD3 120259Z 13005KT 27/15 A3003 RMK A01 T02670152  RH  049%=      5-min Rain = 0
KPD3 120300Z 13005KT 27/15 A3003 RMK A01 T02660153  RH  050%=      5-min Rain = 0
KPD3 120301Z 13005KT 27/15 A3003 RMK A01 T02650153  RH  050%=      5-min Rain = 0
KPD3 120302Z 13004KT 26/15 A3003 RMK A01 T02640152  RH  050%=      5-min Rain = 0
KPD3 120303Z 13004KT 26/15 A3004 RMK A01 T02630153  RH  050%=      5-min Rain = 0
KPD3 120304Z 13004KT 26/15 A3004 RMK A01 T02630153  RH  051%=      5-min Rain = 0
KPD3 120305Z 14004KT 26/15 A3004 RMK A01 T02620153  RH  051%=      5-min Rain = 0
KPD3 120306Z 14003KT 26/15 A3004 RMK A01 T02610154  RH  052%=      5-min Rain = 0
KPD3 120307Z 14003KT 26/15 A3004 RMK A01 T02600151  RH  051%=      5-min Rain = 0
KPD3 120308Z 14003KT 26/15 A3004 RMK A01 T02600151  RH  051%=      5-min Rain = 0
KPD3 120309Z 14003KT 26/15 A3004 RMK A01 T02600150  RH  051%=      5-min Rain = 0
KPD3 120310Z 13003KT 26/15 A3004 RMK A01 T02600151  RH  051%=      5-min Rain = 0
KPD3 120311Z 13003KT 26/15 A3004 RMK A01 T02600151  RH  051%=      5-min Rain = 0
KPD3 120312Z 13002KT 26/15 A3004 RMK A01 T02600153  RH  052%=      5-min Rain = 0
KPD3 120313Z 13002KT 26/15 A3004 RMK A01 T02600153  RH  052%=      5-min Rain = 0
KPD3 120314Z 12002KT 26/15 A3004 RMK A01 T02590154  RH  052%=      5-min Rain = 0
KPD3 120315Z 12002KT 26/15 A3004 RMK A01 T02590154  RH  052%=      5-min Rain = 0
KPD3 120316Z 12002KT 26/16 A3004 RMK A01 T02580156  RH  053%=      5-min Rain = 0
KPD3 120317Z 12002KT 26/16 A3004 RMK A01 T02580155  RH  053%=      5-min Rain = 0
KPD3 120318Z 12002KT 26/15 A3004 RMK A01 T02570154  RH  053%=      5-min Rain = 0
KPD3 120319Z 12002KT 26/16 A3004 RMK A01 T02570155  RH  053%=      5-min Rain = 0
KPD3 120320Z 12002KT 26/16 A3005 RMK A01 T02560157  RH  054%=      5-min Rain = 0
KPD3 120321Z 13002KT 26/16 A3005 RMK A01 T02550157  RH  055%=      5-min Rain = 0
KPD3 120322Z 13002KT 25/16 A3005 RMK A01 T02540160  RH  056%=      5-min Rain = 0
KPD3 120323Z 13002KT 25/16 A3005 RMK A01 T02520161  RH  057%=      5-min Rain = 0
KPD3 120324Z 13002KT 25/16 A3005 RMK A01 T02500161  RH  058%=      5-min Rain = 0
KPD3 120325Z 13002KT 25/15 A3005 RMK A01 T02480154  RH  056%=      5-min Rain = 0
KPD3 120326Z 13002KT 25/15 A3005 RMK A01 T02490154  RH  055%=      5-min Rain = 0
KPD3 120327Z 14002KT 25/16 A3005 RMK A01 T02490159  RH  057%=      5-min Rain = 0
KPD3 120328Z 14003KT 25/15 A3005 RMK A01 T02490151  RH  054%=      5-min Rain = 0
KPD3 120329Z 14002KT 25/16 A3005 RMK A01 T02500155  RH  056%=      5-min Rain = 0
KPD3 120330Z 14003KT 25/16 A3005 RMK A01 T02500157  RH  056%=      5-min Rain = 0
KPD3 120331Z 14003KT 25/16 A3005 RMK A01 T02500155  RH  055%=      5-min Rain = 0
KPD3 120332Z 14003KT 25/15 A3005 RMK A01 T02510154  RH  055%=      5-min Rain = 0
KPD3 120333Z 15002KT 25/16 A3005 RMK A01 T02510155  RH  055%=      5-min Rain = 0
KPD3 120334Z 16002KT 25/16 A3005 RMK A01 T02510157  RH  056%=      5-min Rain = 0
KPD3 120335Z 16002KT 25/16 A3005 RMK A01 T02500156  RH  056%=      5-min Rain = 0
KPD3 120336Z 16002KT 25/16 A3005 RMK A01 T02480158  RH  057%=      5-min Rain = 0
KPD3 120337Z 16002KT 25/16 A3005 RMK A01 T02460157  RH  058%=      5-min Rain = 0
KPD3 120338Z 16002KT 25/16 A3005 RMK A01 T02450160  RH  059%=      5-min Rain = 0
KPD3 120339Z 16002KT 24/16 A3005 RMK A01 T02430155  RH  058%=      5-min Rain = 0
KPD3 120340Z 17002KT 24/15 A3005 RMK A01 T02430154  RH  057%=      5-min Rain = 0
KPD3 120341Z 16002KT 24/15 A3005 RMK A01 T02440154  RH  057%=      5-min Rain = 0
KPD3 120342Z 16002KT 25/15 A3005 RMK A01 T02450153  RH  057%=      5-min Rain = 0
KPD3 120343Z 15002KT 25/15 A3005 RMK A01 T02460152  RH  056%=      5-min Rain = 0
KPD3 120344Z 16003KT 25/15 A3005 RMK A01 T02470151  RH  055%=      5-min Rain = 0
KPD3 120345Z 15002KT 25/15 A3005 RMK A01 T02480153  RH  055%=      5-min Rain = 0
KPD3 120346Z 15002KT 25/15 A3006 RMK A01 T02490154  RH  056%=      5-min Rain = 0
KPD3 120347Z 15003KT 25/15 A3006 RMK A01 T02490154  RH  056%=      5-min Rain = 0
KPD3 120348Z 14003KT 25/16 A3006 RMK A01 T02490155  RH  056%=      5-min Rain = 0
KPD3 120349Z 14003KT 25/16 A3006 RMK A01 T02490156  RH  056%=      5-min Rain = 0
KPD3 120350Z 13003KT 25/16 A3006 RMK A01 T02490156  RH  056%=      5-min Rain = 0
KPD3 120351Z 13003KT 25/16 A3006 RMK A01 T02480156  RH  056%=      5-min Rain = 0
KPD3 120352Z 12002KT 25/17 A3006 RMK A01 T02470165  RH  060%=      5-min Rain = 0
KPD3 120353Z 12002KT 25/16 A3006 RMK A01 T02460160  RH  059%=      5-min Rain = 0
KPD3 120354Z 12002KT 24/16 A3006 RMK A01 T02440156  RH  058%=      5-min Rain = 0
KPD3 120355Z 12002KT 24/16 A3006 RMK A01 T02440158  RH  059%=      5-min Rain = 0
KPD3 120356Z 12002KT 24/16 A3006 RMK A01 T02440157  RH  059%=      5-min Rain = 0
KPD3 120357Z 11002KT 24/16 A3006 RMK A01 T02440164  RH  061%=      5-min Rain = 0
KPD3 120358Z 12002KT 24/16 A3006 RMK A01 T02430161  RH  060%=      5-min Rain = 0
KPD3 120359Z 11002KT 24/16 A3006 RMK A01 T02430159  RH  060%=      5-min Rain = 0
KPD3 120400Z 12002KT 24/16 A3006 RMK A01 T02430159  RH  060%=      5-min Rain = 0
KPD3 120401Z 11002KT 24/16 A3006 RMK A01 T02420155  RH  058%=      5-min Rain = 0
KPD3 120402Z 11002KT 24/15 A3006 RMK A01 T02440154  RH  057%=      5-min Rain = 0
KPD3 120403Z 11002KT 24/16 A3006 RMK A01 T02440155  RH  057%=      5-min Rain = 0
KPD3 120404Z 11003KT 25/16 A3006 RMK A01 T02450157  RH  058%=      5-min Rain = 0
KPD3 120405Z 11003KT 25/16 A3006 RMK A01 T02450160  RH  059%=      5-min Rain = 0
KPD3 120406Z 11004KT 25/16 A3006 RMK A01 T02450158  RH  058%=      5-min Rain = 0
KPD3 120407Z 11003KT 25/16 A3005 RMK A01 T02460157  RH  058%=      5-min Rain = 0
KPD3 120408Z 12003KT 25/16 A3005 RMK A01 T02480159  RH  058%=      5-min Rain = 0
KPD3 120409Z 12004KT 25/16 A3005 RMK A01 T02490160  RH  058%=      5-min Rain = 0
KPD3 120410Z 12004KT 25/16 A3005 RMK A01 T02490159  RH  057%=      5-min Rain = 0
KPD3 120411Z 13004KT 25/16 A3005 RMK A01 T02500160  RH  057%=      5-min Rain = 0
KPD3 120412Z 12004KT 25/16 A3005 RMK A01 T02500159  RH  057%=      5-min Rain = 0
KPD3 120413Z 13005KT 25/16 A3005 RMK A01 T02500159  RH  057%=      5-min Rain = 0
KPD3 120414Z 13005KT 25/16 A3005 RMK A01 T02500159  RH  057%=      5-min Rain = 0
KPD3 120415Z 13005KT 25/16 A3005 RMK A01 T02500160  RH  057%=      5-min Rain = 0
KPD3 120416Z 13005KT 25/16 A3005 RMK A01 T02500161  RH  058%=      5-min Rain = 0
KPD3 120417Z 13005KT 25/16 A3005 RMK A01 T02490162  RH  058%=      5-min Rain = 0
KPD3 120418Z 13005KT 25/16 A3005 RMK A01 T02480162  RH  059%=      5-min Rain = 0
KPD3 120419Z 13005KT 25/16 A3005 RMK A01 T02470161  RH  059%=      5-min Rain = 0
KPD3 120420Z 13005KT 25/16 A3005 RMK A01 T02460161  RH  059%=      5-min Rain = 0
KPD3 120421Z 13005KT 25/16 A3005 RMK A01 T02450161  RH  060%=      5-min Rain = 0
KPD3 120422Z 14005KT 25/16 A3005 RMK A01 T02450162  RH  060%=      5-min Rain = 0
KPD3 120423Z 14004KT 24/16 A3005 RMK A01 T02440162  RH  060%=      5-min Rain = 0
KPD3 120424Z 14004KT 24/16 A3005 RMK A01 T02430162  RH  061%=      5-min Rain = 0
KPD3 120425Z 14004KT 24/16 A3005 RMK A01 T02420162  RH  061%=      5-min Rain = 0
KPD3 120426Z 14004KT 24/16 A3005 RMK A01 T02420162  RH  061%=      5-min Rain = 0
KPD3 120427Z 14004KT 24/16 A3005 RMK A01 T02410162  RH  061%=      5-min Rain = 0
KPD3 120428Z 14003KT 24/16 A3005 RMK A01 T02410162  RH  061%=      5-min Rain = 0
KPD3 120429Z 14003KT 24/16 A3005 RMK A01 T02410162  RH  061%=      5-min Rain = 0
KPD3 120430Z 14003KT 24/16 A3005 RMK A01 T02400162  RH  061%=      5-min Rain = 0
KPD3 120431Z 14003KT 24/16 A3005 RMK A01 T02400162  RH  061%=      5-min Rain = 0
KPD3 120432Z 14003KT 24/16 A3005 RMK A01 T02400162  RH  061%=      5-min Rain = 0
KPD3 120433Z 13003KT 24/16 A3005 RMK A01 T02400162  RH  061%=      5-min Rain = 0
KPD3 120434Z 13003KT 24/16 A3005 RMK A01 T02400162  RH  061%=      5-min Rain = 0
KPD3 120435Z 14003KT 24/16 A3005 RMK A01 T02400161  RH  061%=      5-min Rain = 0
KPD3 120436Z 13003KT 24/16 A3005 RMK A01 T02400161  RH  061%=      5-min Rain = 0
KPD3 120437Z 14003KT 24/16 A3005 RMK A01 T02400161  RH  061%=      5-min Rain = 0
KPD3 120438Z 14003KT 24/16 A3005 RMK A01 T02410161  RH  061%=      5-min Rain = 0
KPD3 120439Z 14003KT 24/16 A3005 RMK A01 T02410160  RH  061%=      5-min Rain = 0
KPD3 120440Z 14003KT 24/16 A3005 RMK A01 T02420160  RH  060%=      5-min Rain = 0
KPD3 120441Z 14003KT 24/16 A3005 RMK A01 T02420161  RH  060%=      5-min Rain = 0
KPD3 120442Z 14003KT 24/16 A3006 RMK A01 T02420160  RH  060%=      5-min Rain = 0
KPD3 120443Z 14003KT 24/16 A3006 RMK A01 T02420160  RH  060%=      5-min Rain = 0
KPD3 120444Z 15002KT 24/16 A3006 RMK A01 T02430160  RH  060%=      5-min Rain = 0
KPD3 120445Z 14003KT 24/16 A3006 RMK A01 T02430160  RH  060%=      5-min Rain = 0
KPD3 120446Z 15003KT 24/16 A3006 RMK A01 T02430162  RH  060%=      5-min Rain = 0
KPD3 120447Z 15002KT 24/16 A3006 RMK A01 T02430161  RH  060%=      5-min Rain = 0
KPD3 120448Z 15002KT 24/16 A3006 RMK A01 T02430160  RH  060%=      5-min Rain = 0
KPD3 120449Z 15002KT 24/16 A3006 RMK A01 T02440159  RH  059%=      5-min Rain = 0
KPD3 120450Z 15002KT 24/16 A3006 RMK A01 T02440160  RH  059%=      5-min Rain = 0
KPD3 120451Z 15002KT 25/16 A3006 RMK A01 T02450159  RH  059%=      5-min Rain = 0
KPD3 120452Z 16002KT 25/16 A3006 RMK A01 T02450159  RH  059%=      5-min Rain = 0
KPD3 120453Z 16003KT 25/16 A3006 RMK A01 T02450159  RH  059%=      5-min Rain = 0
KPD3 120454Z 16003KT 25/16 A3006 RMK A01 T02460159  RH  058%=      5-min Rain = 0
KPD3 120455Z 16003KT 25/16 A3006 RMK A01 T02460159  RH  058%=      5-min Rain = 0
KPD3 120456Z 16002KT 25/16 A3006 RMK A01 T02460159  RH  059%=      5-min Rain = 0
KPD3 120457Z 15002KT 25/16 A3006 RMK A01 T02460160  RH  059%=      5-min Rain = 0
KPD3 120458Z 15002KT 25/16 A3006 RMK A01 T02450162  RH  060%=      5-min Rain = 0
KPD3 120459Z 16003KT 24/16 A3006 RMK A01 T02440160  RH  059%=      5-min Rain = 0
KPD3 120500Z 16003KT 24/16 A3006 RMK A01 T02440159  RH  059%=      5-min Rain = 0

Page generated in 0.0517 seconds.